<?xml version="1.0" encoding="UTF-8" standalone="no" ?>
<gpx xmlns="http://www.topografix.com/GPX/1/1" xmlns:xsi="http://www.w3.org/2001/XMLSchema-instance" xsi:schemaLocation="http://www.topografix.com/GPX/1/1 http://www.topografix.com/GPX/1/1/gpx.xsd" version="1.1" creator="VisuGPX - https://www.visugpx.com">
  <metadata>
    <name>83 - M  - le Muy </name>
    <desc><![CDATA[ 83 - M  - le Muy - Palayson aquatique 
mercredi 2020-09-09]]></desc>
  </metadata>
  <trk>
    <name><![CDATA[le Muy palayson aquatique mercredi 2020-09-09-01__]]></name>
    <extensions>
      <line xmlns="http://www.topografix.com/GPX/gpx_style/0/2">
        <width>4</width>
      </line>
    </extensions>
    <trkseg>
      <trkpt lat="43.46884" lon="6.61939">
        <ele>56.4</ele>
        <time>2020-09-09T12:11:40.000Z</time>
      </trkpt>
      <trkpt lat="43.46884" lon="6.61939">
        <ele>56</ele>
        <time>2020-09-09T12:11:40.000Z</time>
      </trkpt>
      <trkpt lat="43.46891" lon="6.61946">
        <ele>56.4</ele>
        <time>2020-09-09T12:13:03.000Z</time>
      </trkpt>
      <trkpt lat="43.46883" lon="6.61954">
        <ele>56.5</ele>
        <time>2020-09-09T12:14:40.000Z</time>
      </trkpt>
      <trkpt lat="43.46877" lon="6.61963">
        <ele>56.3</ele>
        <time>2020-09-09T12:14:48.000Z</time>
      </trkpt>
      <trkpt lat="43.46872" lon="6.61974">
        <ele>55.8</ele>
        <time>2020-09-09T12:14:56.000Z</time>
      </trkpt>
      <trkpt lat="43.46867" lon="6.61986">
        <ele>55.2</ele>
        <time>2020-09-09T12:15:04.000Z</time>
      </trkpt>
      <trkpt lat="43.46863" lon="6.61997">
        <ele>55.3</ele>
        <time>2020-09-09T12:15:11.000Z</time>
      </trkpt>
      <trkpt lat="43.46857" lon="6.62008">
        <ele>54.9</ele>
        <time>2020-09-09T12:15:20.000Z</time>
      </trkpt>
      <trkpt lat="43.46852" lon="6.62018">
        <ele>54.8</ele>
        <time>2020-09-09T12:15:28.000Z</time>
      </trkpt>
      <trkpt lat="43.46847" lon="6.62031">
        <ele>54.3</ele>
        <time>2020-09-09T12:15:37.000Z</time>
      </trkpt>
      <trkpt lat="43.46843" lon="6.62043">
        <ele>54.6</ele>
        <time>2020-09-09T12:15:45.000Z</time>
      </trkpt>
      <trkpt lat="43.4684" lon="6.62056">
        <ele>54.3</ele>
        <time>2020-09-09T12:15:53.000Z</time>
      </trkpt>
      <trkpt lat="43.46836" lon="6.62068">
        <ele>54.1</ele>
        <time>2020-09-09T12:16:01.000Z</time>
      </trkpt>
      <trkpt lat="43.46828" lon="6.62076">
        <ele>53.4</ele>
        <time>2020-09-09T12:16:09.000Z</time>
      </trkpt>
      <trkpt lat="43.46822" lon="6.62086">
        <ele>53.3</ele>
        <time>2020-09-09T12:16:17.000Z</time>
      </trkpt>
      <trkpt lat="43.46819" lon="6.62098">
        <ele>52.9</ele>
        <time>2020-09-09T12:16:25.000Z</time>
      </trkpt>
      <trkpt lat="43.46811" lon="6.62106">
        <ele>52.7</ele>
        <time>2020-09-09T12:16:33.000Z</time>
      </trkpt>
      <trkpt lat="43.46802" lon="6.62113">
        <ele>52.9</ele>
        <time>2020-09-09T12:16:42.000Z</time>
      </trkpt>
      <trkpt lat="43.46793" lon="6.62117">
        <ele>52.6</ele>
        <time>2020-09-09T12:16:50.000Z</time>
      </trkpt>
      <trkpt lat="43.46785" lon="6.62122">
        <ele>52.6</ele>
        <time>2020-09-09T12:16:58.000Z</time>
      </trkpt>
      <trkpt lat="43.46777" lon="6.6213">
        <ele>51.9</ele>
        <time>2020-09-09T12:17:06.000Z</time>
      </trkpt>
      <trkpt lat="43.46769" lon="6.62138">
        <ele>51.7</ele>
        <time>2020-09-09T12:17:14.000Z</time>
      </trkpt>
      <trkpt lat="43.46761" lon="6.62145">
        <ele>51.4</ele>
        <time>2020-09-09T12:17:23.000Z</time>
      </trkpt>
      <trkpt lat="43.46752" lon="6.62151">
        <ele>51.4</ele>
        <time>2020-09-09T12:17:32.000Z</time>
      </trkpt>
      <trkpt lat="43.46746" lon="6.62162">
        <ele>51.1</ele>
        <time>2020-09-09T12:17:40.000Z</time>
      </trkpt>
      <trkpt lat="43.46745" lon="6.62175">
        <ele>51</ele>
        <time>2020-09-09T12:17:48.000Z</time>
      </trkpt>
      <trkpt lat="43.46745" lon="6.62189">
        <ele>51.4</ele>
        <time>2020-09-09T12:17:56.000Z</time>
      </trkpt>
      <trkpt lat="43.46745" lon="6.62201">
        <ele>51.2</ele>
        <time>2020-09-09T12:18:04.000Z</time>
      </trkpt>
      <trkpt lat="43.46744" lon="6.62215">
        <ele>51.1</ele>
        <time>2020-09-09T12:18:13.000Z</time>
      </trkpt>
      <trkpt lat="43.46742" lon="6.62228">
        <ele>51.2</ele>
        <time>2020-09-09T12:18:21.000Z</time>
      </trkpt>
      <trkpt lat="43.46742" lon="6.62241">
        <ele>50.9</ele>
        <time>2020-09-09T12:18:29.000Z</time>
      </trkpt>
      <trkpt lat="43.46742" lon="6.62254">
        <ele>50.8</ele>
        <time>2020-09-09T12:18:37.000Z</time>
      </trkpt>
      <trkpt lat="43.46741" lon="6.62267">
        <ele>50.8</ele>
        <time>2020-09-09T12:18:45.000Z</time>
      </trkpt>
      <trkpt lat="43.46739" lon="6.6228">
        <ele>50.9</ele>
        <time>2020-09-09T12:18:52.000Z</time>
      </trkpt>
      <trkpt lat="43.46742" lon="6.62292">
        <ele>51</ele>
        <time>2020-09-09T12:19:00.000Z</time>
      </trkpt>
      <trkpt lat="43.46746" lon="6.62305">
        <ele>50.8</ele>
        <time>2020-09-09T12:19:09.000Z</time>
      </trkpt>
      <trkpt lat="43.46751" lon="6.62316">
        <ele>50.6</ele>
        <time>2020-09-09T12:19:17.000Z</time>
      </trkpt>
      <trkpt lat="43.46757" lon="6.62325">
        <ele>50.7</ele>
        <time>2020-09-09T12:19:26.000Z</time>
      </trkpt>
      <trkpt lat="43.46765" lon="6.62334">
        <ele>49.8</ele>
        <time>2020-09-09T12:19:37.000Z</time>
      </trkpt>
      <trkpt lat="43.46769" lon="6.62346">
        <ele>48.7</ele>
        <time>2020-09-09T12:19:46.000Z</time>
      </trkpt>
      <trkpt lat="43.46767" lon="6.62359">
        <ele>48.1</ele>
        <time>2020-09-09T12:19:57.000Z</time>
      </trkpt>
      <trkpt lat="43.46765" lon="6.62372">
        <ele>47.6</ele>
        <time>2020-09-09T12:20:07.000Z</time>
      </trkpt>
      <trkpt lat="43.46763" lon="6.62385">
        <ele>46.8</ele>
        <time>2020-09-09T12:20:17.000Z</time>
      </trkpt>
      <trkpt lat="43.46764" lon="6.62398">
        <ele>45.2</ele>
        <time>2020-09-09T12:20:28.000Z</time>
      </trkpt>
      <trkpt lat="43.46772" lon="6.62404">
        <ele>43.6</ele>
        <time>2020-09-09T12:20:40.000Z</time>
      </trkpt>
      <trkpt lat="43.46779" lon="6.62412">
        <ele>43.5</ele>
        <time>2020-09-09T12:21:21.000Z</time>
      </trkpt>
      <trkpt lat="43.46788" lon="6.62415">
        <ele>42.9</ele>
        <time>2020-09-09T12:21:36.000Z</time>
      </trkpt>
      <trkpt lat="43.46798" lon="6.62414">
        <ele>43</ele>
        <time>2020-09-09T12:21:48.000Z</time>
      </trkpt>
      <trkpt lat="43.46807" lon="6.62409">
        <ele>42.7</ele>
        <time>2020-09-09T12:21:57.000Z</time>
      </trkpt>
      <trkpt lat="43.46805" lon="6.62421">
        <ele>41.9</ele>
        <time>2020-09-09T12:23:26.000Z</time>
      </trkpt>
      <trkpt lat="43.46807" lon="6.62433">
        <ele>42.5</ele>
        <time>2020-09-09T12:23:37.000Z</time>
      </trkpt>
      <trkpt lat="43.46816" lon="6.62438">
        <ele>42.5</ele>
        <time>2020-09-09T12:23:48.000Z</time>
      </trkpt>
      <trkpt lat="43.46826" lon="6.6244">
        <ele>42.7</ele>
        <time>2020-09-09T12:23:59.000Z</time>
      </trkpt>
      <trkpt lat="43.46836" lon="6.6244">
        <ele>43.1</ele>
        <time>2020-09-09T12:24:09.000Z</time>
      </trkpt>
      <trkpt lat="43.46846" lon="6.6244">
        <ele>43</ele>
        <time>2020-09-09T12:24:18.000Z</time>
      </trkpt>
      <trkpt lat="43.46855" lon="6.62445">
        <ele>42.5</ele>
        <time>2020-09-09T12:24:28.000Z</time>
      </trkpt>
      <trkpt lat="43.46863" lon="6.62452">
        <ele>41.8</ele>
        <time>2020-09-09T12:24:37.000Z</time>
      </trkpt>
      <trkpt lat="43.4687" lon="6.62461">
        <ele>41.7</ele>
        <time>2020-09-09T12:24:46.000Z</time>
      </trkpt>
      <trkpt lat="43.46876" lon="6.62472">
        <ele>40.9</ele>
        <time>2020-09-09T12:24:56.000Z</time>
      </trkpt>
      <trkpt lat="43.46881" lon="6.62482">
        <ele>40.5</ele>
        <time>2020-09-09T12:25:06.000Z</time>
      </trkpt>
      <trkpt lat="43.46885" lon="6.62493">
        <ele>39.9</ele>
        <time>2020-09-09T12:25:15.000Z</time>
      </trkpt>
      <trkpt lat="43.4689" lon="6.62505">
        <ele>38.9</ele>
        <time>2020-09-09T12:25:31.000Z</time>
      </trkpt>
      <trkpt lat="43.46896" lon="6.62515">
        <ele>38.1</ele>
        <time>2020-09-09T12:25:40.000Z</time>
      </trkpt>
      <trkpt lat="43.469" lon="6.62526">
        <ele>37.6</ele>
        <time>2020-09-09T12:26:57.000Z</time>
      </trkpt>
      <trkpt lat="43.46903" lon="6.62539">
        <ele>36.4</ele>
        <time>2020-09-09T12:27:07.000Z</time>
      </trkpt>
      <trkpt lat="43.46905" lon="6.62552">
        <ele>35.3</ele>
        <time>2020-09-09T12:27:16.000Z</time>
      </trkpt>
      <trkpt lat="43.46907" lon="6.62565">
        <ele>34.3</ele>
        <time>2020-09-09T12:27:24.000Z</time>
      </trkpt>
      <trkpt lat="43.46909" lon="6.62578">
        <ele>33.5</ele>
        <time>2020-09-09T12:27:33.000Z</time>
      </trkpt>
      <trkpt lat="43.46911" lon="6.62591">
        <ele>33.1</ele>
        <time>2020-09-09T12:27:41.000Z</time>
      </trkpt>
      <trkpt lat="43.46913" lon="6.62603">
        <ele>32.6</ele>
        <time>2020-09-09T12:27:49.000Z</time>
      </trkpt>
      <trkpt lat="43.46918" lon="6.62614">
        <ele>32.4</ele>
        <time>2020-09-09T12:27:57.000Z</time>
      </trkpt>
      <trkpt lat="43.46925" lon="6.62623">
        <ele>32.1</ele>
        <time>2020-09-09T12:28:05.000Z</time>
      </trkpt>
      <trkpt lat="43.46932" lon="6.62631">
        <ele>31.7</ele>
        <time>2020-09-09T12:28:13.000Z</time>
      </trkpt>
      <trkpt lat="43.46935" lon="6.62642">
        <ele>31.6</ele>
        <time>2020-09-09T12:28:21.000Z</time>
      </trkpt>
      <trkpt lat="43.46936" lon="6.62656">
        <ele>31.1</ele>
        <time>2020-09-09T12:28:30.000Z</time>
      </trkpt>
      <trkpt lat="43.46935" lon="6.62669">
        <ele>30.9</ele>
        <time>2020-09-09T12:28:38.000Z</time>
      </trkpt>
      <trkpt lat="43.46936" lon="6.62682">
        <ele>30.8</ele>
        <time>2020-09-09T12:28:47.000Z</time>
      </trkpt>
      <trkpt lat="43.46934" lon="6.62696">
        <ele>30.2</ele>
        <time>2020-09-09T12:28:57.000Z</time>
      </trkpt>
      <trkpt lat="43.46938" lon="6.62707">
        <ele>30</ele>
        <time>2020-09-09T12:29:07.000Z</time>
      </trkpt>
      <trkpt lat="43.46947" lon="6.62703">
        <ele>29.1</ele>
        <time>2020-09-09T12:29:18.000Z</time>
      </trkpt>
      <trkpt lat="43.46951" lon="6.62691">
        <ele>27.7</ele>
        <time>2020-09-09T12:29:29.000Z</time>
      </trkpt>
      <trkpt lat="43.46956" lon="6.62679">
        <ele>26.6</ele>
        <time>2020-09-09T12:29:39.000Z</time>
      </trkpt>
      <trkpt lat="43.46965" lon="6.62676">
        <ele>25.9</ele>
        <time>2020-09-09T12:29:51.000Z</time>
      </trkpt>
      <trkpt lat="43.46974" lon="6.62678">
        <ele>25.7</ele>
        <time>2020-09-09T12:30:02.000Z</time>
      </trkpt>
      <trkpt lat="43.46984" lon="6.62677">
        <ele>26.3</ele>
        <time>2020-09-09T12:30:12.000Z</time>
      </trkpt>
      <trkpt lat="43.46993" lon="6.62675">
        <ele>27.2</ele>
        <time>2020-09-09T12:30:21.000Z</time>
      </trkpt>
      <trkpt lat="43.47002" lon="6.62673">
        <ele>28.6</ele>
        <time>2020-09-09T12:30:31.000Z</time>
      </trkpt>
      <trkpt lat="43.47011" lon="6.62671">
        <ele>29.4</ele>
        <time>2020-09-09T12:30:42.000Z</time>
      </trkpt>
      <trkpt lat="43.4702" lon="6.62668">
        <ele>30.4</ele>
        <time>2020-09-09T12:30:54.000Z</time>
      </trkpt>
      <trkpt lat="43.47029" lon="6.62672">
        <ele>31.6</ele>
        <time>2020-09-09T12:31:08.000Z</time>
      </trkpt>
      <trkpt lat="43.47038" lon="6.62677">
        <ele>31.9</ele>
        <time>2020-09-09T12:31:19.000Z</time>
      </trkpt>
      <trkpt lat="43.47048" lon="6.62678">
        <ele>32.5</ele>
        <time>2020-09-09T12:31:29.000Z</time>
      </trkpt>
      <trkpt lat="43.47057" lon="6.6268">
        <ele>33.1</ele>
        <time>2020-09-09T12:31:38.000Z</time>
      </trkpt>
      <trkpt lat="43.47067" lon="6.62681">
        <ele>33.3</ele>
        <time>2020-09-09T12:31:47.000Z</time>
      </trkpt>
      <trkpt lat="43.47076" lon="6.62679">
        <ele>33.7</ele>
        <time>2020-09-09T12:31:56.000Z</time>
      </trkpt>
      <trkpt lat="43.47085" lon="6.62678">
        <ele>34</ele>
        <time>2020-09-09T12:32:04.000Z</time>
      </trkpt>
      <trkpt lat="43.47094" lon="6.62681">
        <ele>33.8</ele>
        <time>2020-09-09T12:32:14.000Z</time>
      </trkpt>
      <trkpt lat="43.47102" lon="6.62688">
        <ele>32.8</ele>
        <time>2020-09-09T12:32:23.000Z</time>
      </trkpt>
      <trkpt lat="43.47108" lon="6.62698">
        <ele>32.5</ele>
        <time>2020-09-09T12:32:32.000Z</time>
      </trkpt>
      <trkpt lat="43.47115" lon="6.62707">
        <ele>32</ele>
        <time>2020-09-09T12:32:44.000Z</time>
      </trkpt>
      <trkpt lat="43.47124" lon="6.62711">
        <ele>31.8</ele>
        <time>2020-09-09T12:32:53.000Z</time>
      </trkpt>
      <trkpt lat="43.47134" lon="6.62713">
        <ele>31.5</ele>
        <time>2020-09-09T12:33:00.000Z</time>
      </trkpt>
      <trkpt lat="43.47144" lon="6.62715">
        <ele>31.9</ele>
        <time>2020-09-09T12:33:11.000Z</time>
      </trkpt>
      <trkpt lat="43.47154" lon="6.62718">
        <ele>32.1</ele>
        <time>2020-09-09T12:33:19.000Z</time>
      </trkpt>
      <trkpt lat="43.47163" lon="6.6272">
        <ele>32.7</ele>
        <time>2020-09-09T12:33:27.000Z</time>
      </trkpt>
      <trkpt lat="43.47172" lon="6.62721">
        <ele>33.2</ele>
        <time>2020-09-09T12:33:39.000Z</time>
      </trkpt>
      <trkpt lat="43.47181" lon="6.62721">
        <ele>33.3</ele>
        <time>2020-09-09T12:33:47.000Z</time>
      </trkpt>
      <trkpt lat="43.4719" lon="6.6272">
        <ele>33</ele>
        <time>2020-09-09T12:33:55.000Z</time>
      </trkpt>
      <trkpt lat="43.47199" lon="6.62723">
        <ele>33</ele>
        <time>2020-09-09T12:34:06.000Z</time>
      </trkpt>
      <trkpt lat="43.47209" lon="6.62723">
        <ele>33.6</ele>
        <time>2020-09-09T12:34:16.000Z</time>
      </trkpt>
      <trkpt lat="43.47219" lon="6.62722">
        <ele>34.3</ele>
        <time>2020-09-09T12:34:26.000Z</time>
      </trkpt>
      <trkpt lat="43.47228" lon="6.62721">
        <ele>34.9</ele>
        <time>2020-09-09T12:34:37.000Z</time>
      </trkpt>
      <trkpt lat="43.47237" lon="6.62724">
        <ele>35.8</ele>
        <time>2020-09-09T12:34:48.000Z</time>
      </trkpt>
      <trkpt lat="43.47246" lon="6.62726">
        <ele>35.5</ele>
        <time>2020-09-09T12:34:57.000Z</time>
      </trkpt>
      <trkpt lat="43.47255" lon="6.62731">
        <ele>36.2</ele>
        <time>2020-09-09T12:35:05.000Z</time>
      </trkpt>
      <trkpt lat="43.47265" lon="6.62733">
        <ele>37</ele>
        <time>2020-09-09T12:35:14.000Z</time>
      </trkpt>
      <trkpt lat="43.47274" lon="6.62738">
        <ele>37.8</ele>
        <time>2020-09-09T12:35:24.000Z</time>
      </trkpt>
      <trkpt lat="43.47282" lon="6.62745">
        <ele>38.3</ele>
        <time>2020-09-09T12:35:35.000Z</time>
      </trkpt>
      <trkpt lat="43.47291" lon="6.62746">
        <ele>38.9</ele>
        <time>2020-09-09T12:35:48.000Z</time>
      </trkpt>
      <trkpt lat="43.47299" lon="6.62751">
        <ele>39.2</ele>
        <time>2020-09-09T12:35:57.000Z</time>
      </trkpt>
      <trkpt lat="43.47308" lon="6.62753">
        <ele>39.8</ele>
        <time>2020-09-09T12:36:08.000Z</time>
      </trkpt>
      <trkpt lat="43.47317" lon="6.62756">
        <ele>41.3</ele>
        <time>2020-09-09T12:36:19.000Z</time>
      </trkpt>
      <trkpt lat="43.47326" lon="6.62758">
        <ele>41.7</ele>
        <time>2020-09-09T12:36:28.000Z</time>
      </trkpt>
      <trkpt lat="43.47336" lon="6.62759">
        <ele>42.5</ele>
        <time>2020-09-09T12:36:37.000Z</time>
      </trkpt>
      <trkpt lat="43.47345" lon="6.62759">
        <ele>42.8</ele>
        <time>2020-09-09T12:36:49.000Z</time>
      </trkpt>
      <trkpt lat="43.47355" lon="6.62759">
        <ele>43.3</ele>
        <time>2020-09-09T12:36:58.000Z</time>
      </trkpt>
      <trkpt lat="43.47364" lon="6.6276">
        <ele>43.9</ele>
        <time>2020-09-09T12:37:13.000Z</time>
      </trkpt>
      <trkpt lat="43.47373" lon="6.62763">
        <ele>43.3</ele>
        <time>2020-09-09T12:37:25.000Z</time>
      </trkpt>
      <trkpt lat="43.47382" lon="6.62765">
        <ele>43.2</ele>
        <time>2020-09-09T12:37:45.000Z</time>
      </trkpt>
      <trkpt lat="43.47391" lon="6.62763">
        <ele>44.1</ele>
        <time>2020-09-09T12:38:20.000Z</time>
      </trkpt>
      <trkpt lat="43.474" lon="6.62759">
        <ele>43.8</ele>
        <time>2020-09-09T12:38:46.000Z</time>
      </trkpt>
      <trkpt lat="43.47409" lon="6.62755">
        <ele>43.7</ele>
        <time>2020-09-09T12:39:10.000Z</time>
      </trkpt>
      <trkpt lat="43.47418" lon="6.6275">
        <ele>43.6</ele>
        <time>2020-09-09T12:39:21.000Z</time>
      </trkpt>
      <trkpt lat="43.47427" lon="6.62744">
        <ele>43.4</ele>
        <time>2020-09-09T12:39:32.000Z</time>
      </trkpt>
      <trkpt lat="43.47436" lon="6.62741">
        <ele>43.2</ele>
        <time>2020-09-09T12:39:39.000Z</time>
      </trkpt>
      <trkpt lat="43.47445" lon="6.62735">
        <ele>43.4</ele>
        <time>2020-09-09T12:39:49.000Z</time>
      </trkpt>
      <trkpt lat="43.47454" lon="6.62728">
        <ele>42.9</ele>
        <time>2020-09-09T12:40:00.000Z</time>
      </trkpt>
      <trkpt lat="43.47462" lon="6.6272">
        <ele>42.4</ele>
        <time>2020-09-09T12:40:09.000Z</time>
      </trkpt>
      <trkpt lat="43.4747" lon="6.62714">
        <ele>42.5</ele>
        <time>2020-09-09T12:40:18.000Z</time>
      </trkpt>
      <trkpt lat="43.47479" lon="6.62711">
        <ele>42.4</ele>
        <time>2020-09-09T12:40:28.000Z</time>
      </trkpt>
      <trkpt lat="43.47487" lon="6.62704">
        <ele>42.3</ele>
        <time>2020-09-09T12:40:38.000Z</time>
      </trkpt>
      <trkpt lat="43.47496" lon="6.62701">
        <ele>42.2</ele>
        <time>2020-09-09T12:42:22.000Z</time>
      </trkpt>
      <trkpt lat="43.47504" lon="6.62693">
        <ele>42.5</ele>
        <time>2020-09-09T12:44:13.000Z</time>
      </trkpt>
      <trkpt lat="43.47511" lon="6.62684">
        <ele>42.6</ele>
        <time>2020-09-09T12:44:22.000Z</time>
      </trkpt>
      <trkpt lat="43.47518" lon="6.62675">
        <ele>42.8</ele>
        <time>2020-09-09T12:44:31.000Z</time>
      </trkpt>
      <trkpt lat="43.47526" lon="6.62669">
        <ele>42.9</ele>
        <time>2020-09-09T12:44:40.000Z</time>
      </trkpt>
      <trkpt lat="43.47536" lon="6.62674">
        <ele>43</ele>
        <time>2020-09-09T12:44:49.000Z</time>
      </trkpt>
      <trkpt lat="43.47544" lon="6.62679">
        <ele>43</ele>
        <time>2020-09-09T12:44:58.000Z</time>
      </trkpt>
      <trkpt lat="43.47553" lon="6.62674">
        <ele>43.3</ele>
        <time>2020-09-09T12:45:08.000Z</time>
      </trkpt>
      <trkpt lat="43.4756" lon="6.62664">
        <ele>43.7</ele>
        <time>2020-09-09T12:45:17.000Z</time>
      </trkpt>
      <trkpt lat="43.47564" lon="6.62652">
        <ele>44</ele>
        <time>2020-09-09T12:45:27.000Z</time>
      </trkpt>
      <trkpt lat="43.47566" lon="6.62639">
        <ele>45.1</ele>
        <time>2020-09-09T12:45:37.000Z</time>
      </trkpt>
      <trkpt lat="43.47568" lon="6.62626">
        <ele>45.3</ele>
        <time>2020-09-09T12:45:47.000Z</time>
      </trkpt>
      <trkpt lat="43.4757" lon="6.62614">
        <ele>45.3</ele>
        <time>2020-09-09T12:45:57.000Z</time>
      </trkpt>
      <trkpt lat="43.47573" lon="6.62601">
        <ele>45.6</ele>
        <time>2020-09-09T12:46:07.000Z</time>
      </trkpt>
      <trkpt lat="43.47576" lon="6.62588">
        <ele>46.2</ele>
        <time>2020-09-09T12:46:17.000Z</time>
      </trkpt>
      <trkpt lat="43.47579" lon="6.62576">
        <ele>46.1</ele>
        <time>2020-09-09T12:46:26.000Z</time>
      </trkpt>
      <trkpt lat="43.47583" lon="6.62564">
        <ele>46.7</ele>
        <time>2020-09-09T12:46:36.000Z</time>
      </trkpt>
      <trkpt lat="43.47585" lon="6.62551">
        <ele>46.9</ele>
        <time>2020-09-09T12:46:45.000Z</time>
      </trkpt>
      <trkpt lat="43.47589" lon="6.62539">
        <ele>47</ele>
        <time>2020-09-09T12:46:54.000Z</time>
      </trkpt>
      <trkpt lat="43.47598" lon="6.62534">
        <ele>47</ele>
        <time>2020-09-09T12:47:08.000Z</time>
      </trkpt>
      <trkpt lat="43.47605" lon="6.62542">
        <ele>46.2</ele>
        <time>2020-09-09T12:47:20.000Z</time>
      </trkpt>
      <trkpt lat="43.4761" lon="6.62553">
        <ele>46.4</ele>
        <time>2020-09-09T12:47:30.000Z</time>
      </trkpt>
      <trkpt lat="43.47615" lon="6.62563">
        <ele>46.2</ele>
        <time>2020-09-09T12:47:40.000Z</time>
      </trkpt>
      <trkpt lat="43.47621" lon="6.62573">
        <ele>46.7</ele>
        <time>2020-09-09T12:47:48.000Z</time>
      </trkpt>
      <trkpt lat="43.47626" lon="6.62584">
        <ele>47.4</ele>
        <time>2020-09-09T12:47:58.000Z</time>
      </trkpt>
      <trkpt lat="43.47632" lon="6.62595">
        <ele>47.8</ele>
        <time>2020-09-09T12:48:08.000Z</time>
      </trkpt>
      <trkpt lat="43.47639" lon="6.62603">
        <ele>47.7</ele>
        <time>2020-09-09T12:48:19.000Z</time>
      </trkpt>
      <trkpt lat="43.47648" lon="6.6261">
        <ele>47.9</ele>
        <time>2020-09-09T12:48:29.000Z</time>
      </trkpt>
      <trkpt lat="43.47656" lon="6.62615">
        <ele>47.6</ele>
        <time>2020-09-09T12:48:39.000Z</time>
      </trkpt>
      <trkpt lat="43.47664" lon="6.62621">
        <ele>47.5</ele>
        <time>2020-09-09T12:48:48.000Z</time>
      </trkpt>
      <trkpt lat="43.47673" lon="6.62625">
        <ele>47.3</ele>
        <time>2020-09-09T12:48:58.000Z</time>
      </trkpt>
      <trkpt lat="43.47682" lon="6.62627">
        <ele>47.3</ele>
        <time>2020-09-09T12:49:06.000Z</time>
      </trkpt>
      <trkpt lat="43.47692" lon="6.62627">
        <ele>47.5</ele>
        <time>2020-09-09T12:49:15.000Z</time>
      </trkpt>
      <trkpt lat="43.47701" lon="6.62629">
        <ele>47.9</ele>
        <time>2020-09-09T12:49:25.000Z</time>
      </trkpt>
      <trkpt lat="43.47711" lon="6.62628">
        <ele>48.1</ele>
        <time>2020-09-09T12:49:35.000Z</time>
      </trkpt>
      <trkpt lat="43.4772" lon="6.62626">
        <ele>47.9</ele>
        <time>2020-09-09T12:49:44.000Z</time>
      </trkpt>
      <trkpt lat="43.47729" lon="6.62623">
        <ele>48</ele>
        <time>2020-09-09T12:49:53.000Z</time>
      </trkpt>
      <trkpt lat="43.47739" lon="6.62619">
        <ele>48.1</ele>
        <time>2020-09-09T12:50:02.000Z</time>
      </trkpt>
      <trkpt lat="43.47748" lon="6.62614">
        <ele>48</ele>
        <time>2020-09-09T12:50:11.000Z</time>
      </trkpt>
      <trkpt lat="43.47757" lon="6.62608">
        <ele>47.4</ele>
        <time>2020-09-09T12:50:20.000Z</time>
      </trkpt>
      <trkpt lat="43.47766" lon="6.62604">
        <ele>47.7</ele>
        <time>2020-09-09T12:50:29.000Z</time>
      </trkpt>
      <trkpt lat="43.47775" lon="6.62605">
        <ele>47.7</ele>
        <time>2020-09-09T12:50:38.000Z</time>
      </trkpt>
      <trkpt lat="43.47784" lon="6.62604">
        <ele>47.8</ele>
        <time>2020-09-09T12:50:46.000Z</time>
      </trkpt>
      <trkpt lat="43.47793" lon="6.62603">
        <ele>48.6</ele>
        <time>2020-09-09T12:50:55.000Z</time>
      </trkpt>
      <trkpt lat="43.47802" lon="6.62602">
        <ele>49.3</ele>
        <time>2020-09-09T12:51:04.000Z</time>
      </trkpt>
      <trkpt lat="43.47812" lon="6.62601">
        <ele>49.6</ele>
        <time>2020-09-09T12:51:13.000Z</time>
      </trkpt>
      <trkpt lat="43.47821" lon="6.626">
        <ele>50.2</ele>
        <time>2020-09-09T12:51:22.000Z</time>
      </trkpt>
      <trkpt lat="43.47831" lon="6.626">
        <ele>50.1</ele>
        <time>2020-09-09T12:51:31.000Z</time>
      </trkpt>
      <trkpt lat="43.47841" lon="6.626">
        <ele>50.2</ele>
        <time>2020-09-09T12:51:40.000Z</time>
      </trkpt>
      <trkpt lat="43.47851" lon="6.62599">
        <ele>50.7</ele>
        <time>2020-09-09T12:51:51.000Z</time>
      </trkpt>
      <trkpt lat="43.4786" lon="6.62597">
        <ele>51</ele>
        <time>2020-09-09T12:52:00.000Z</time>
      </trkpt>
      <trkpt lat="43.47869" lon="6.62595">
        <ele>51.9</ele>
        <time>2020-09-09T12:52:09.000Z</time>
      </trkpt>
      <trkpt lat="43.47878" lon="6.62595">
        <ele>52.4</ele>
        <time>2020-09-09T12:52:18.000Z</time>
      </trkpt>
      <trkpt lat="43.47887" lon="6.62593">
        <ele>53</ele>
        <time>2020-09-09T12:52:30.000Z</time>
      </trkpt>
      <trkpt lat="43.47897" lon="6.62591">
        <ele>53.6</ele>
        <time>2020-09-09T12:52:41.000Z</time>
      </trkpt>
      <trkpt lat="43.47906" lon="6.62592">
        <ele>54.3</ele>
        <time>2020-09-09T12:52:49.000Z</time>
      </trkpt>
      <trkpt lat="43.47915" lon="6.62593">
        <ele>54.5</ele>
        <time>2020-09-09T12:54:09.000Z</time>
      </trkpt>
      <trkpt lat="43.47923" lon="6.62584">
        <ele>55.1</ele>
        <time>2020-09-09T12:54:19.000Z</time>
      </trkpt>
      <trkpt lat="43.47927" lon="6.62572">
        <ele>56.1</ele>
        <time>2020-09-09T12:54:29.000Z</time>
      </trkpt>
      <trkpt lat="43.4793" lon="6.6256">
        <ele>57.3</ele>
        <time>2020-09-09T12:54:41.000Z</time>
      </trkpt>
      <trkpt lat="43.4793" lon="6.62548">
        <ele>58.8</ele>
        <time>2020-09-09T12:54:52.000Z</time>
      </trkpt>
      <trkpt lat="43.4793" lon="6.62534">
        <ele>60.2</ele>
        <time>2020-09-09T12:55:05.000Z</time>
      </trkpt>
      <trkpt lat="43.47929" lon="6.62521">
        <ele>61.7</ele>
        <time>2020-09-09T12:55:17.000Z</time>
      </trkpt>
      <trkpt lat="43.47927" lon="6.62509">
        <ele>63.7</ele>
        <time>2020-09-09T12:55:33.000Z</time>
      </trkpt>
      <trkpt lat="43.47927" lon="6.62497">
        <ele>64.5</ele>
        <time>2020-09-09T12:56:09.000Z</time>
      </trkpt>
      <trkpt lat="43.4793" lon="6.62484">
        <ele>65.7</ele>
        <time>2020-09-09T12:56:20.000Z</time>
      </trkpt>
      <trkpt lat="43.47933" lon="6.62472">
        <ele>67.2</ele>
        <time>2020-09-09T12:56:32.000Z</time>
      </trkpt>
      <trkpt lat="43.47933" lon="6.62459">
        <ele>67.8</ele>
        <time>2020-09-09T12:56:42.000Z</time>
      </trkpt>
      <trkpt lat="43.47935" lon="6.62446">
        <ele>68.2</ele>
        <time>2020-09-09T12:56:51.000Z</time>
      </trkpt>
      <trkpt lat="43.47942" lon="6.62438">
        <ele>70.3</ele>
        <time>2020-09-09T12:57:03.000Z</time>
      </trkpt>
      <trkpt lat="43.47946" lon="6.62426">
        <ele>70.5</ele>
        <time>2020-09-09T12:58:24.000Z</time>
      </trkpt>
      <trkpt lat="43.47955" lon="6.62421">
        <ele>71.7</ele>
        <time>2020-09-09T12:58:37.000Z</time>
      </trkpt>
      <trkpt lat="43.47964" lon="6.62421">
        <ele>71.8</ele>
        <time>2020-09-09T12:58:47.000Z</time>
      </trkpt>
      <trkpt lat="43.47975" lon="6.6242">
        <ele>72.1</ele>
        <time>2020-09-09T12:58:57.000Z</time>
      </trkpt>
      <trkpt lat="43.47984" lon="6.62418">
        <ele>72.5</ele>
        <time>2020-09-09T12:59:06.000Z</time>
      </trkpt>
      <trkpt lat="43.47994" lon="6.62414">
        <ele>72.2</ele>
        <time>2020-09-09T12:59:14.000Z</time>
      </trkpt>
      <trkpt lat="43.48003" lon="6.62413">
        <ele>71.9</ele>
        <time>2020-09-09T12:59:22.000Z</time>
      </trkpt>
      <trkpt lat="43.48012" lon="6.62412">
        <ele>71.9</ele>
        <time>2020-09-09T12:59:31.000Z</time>
      </trkpt>
      <trkpt lat="43.48022" lon="6.62409">
        <ele>71.9</ele>
        <time>2020-09-09T12:59:43.000Z</time>
      </trkpt>
      <trkpt lat="43.48031" lon="6.62407">
        <ele>71.1</ele>
        <time>2020-09-09T12:59:52.000Z</time>
      </trkpt>
      <trkpt lat="43.4804" lon="6.62405">
        <ele>70.9</ele>
        <time>2020-09-09T13:00:00.000Z</time>
      </trkpt>
      <trkpt lat="43.48049" lon="6.62402">
        <ele>70.2</ele>
        <time>2020-09-09T13:00:11.000Z</time>
      </trkpt>
      <trkpt lat="43.48058" lon="6.62399">
        <ele>69.9</ele>
        <time>2020-09-09T13:00:20.000Z</time>
      </trkpt>
      <trkpt lat="43.48067" lon="6.62399">
        <ele>69.4</ele>
        <time>2020-09-09T13:00:31.000Z</time>
      </trkpt>
      <trkpt lat="43.48077" lon="6.62402">
        <ele>69.5</ele>
        <time>2020-09-09T13:00:40.000Z</time>
      </trkpt>
      <trkpt lat="43.48086" lon="6.62405">
        <ele>69.9</ele>
        <time>2020-09-09T13:00:50.000Z</time>
      </trkpt>
      <trkpt lat="43.48095" lon="6.62408">
        <ele>70.4</ele>
        <time>2020-09-09T13:01:00.000Z</time>
      </trkpt>
      <trkpt lat="43.48104" lon="6.62412">
        <ele>71.8</ele>
        <time>2020-09-09T13:04:56.000Z</time>
      </trkpt>
      <trkpt lat="43.48113" lon="6.62414">
        <ele>71.7</ele>
        <time>2020-09-09T13:05:14.000Z</time>
      </trkpt>
      <trkpt lat="43.48122" lon="6.62416">
        <ele>71.3</ele>
        <time>2020-09-09T13:05:26.000Z</time>
      </trkpt>
      <trkpt lat="43.48132" lon="6.62419">
        <ele>71</ele>
        <time>2020-09-09T13:05:37.000Z</time>
      </trkpt>
      <trkpt lat="43.48141" lon="6.62422">
        <ele>70.3</ele>
        <time>2020-09-09T13:05:48.000Z</time>
      </trkpt>
      <trkpt lat="43.48151" lon="6.62424">
        <ele>69.8</ele>
        <time>2020-09-09T13:05:57.000Z</time>
      </trkpt>
      <trkpt lat="43.4816" lon="6.62421">
        <ele>69.3</ele>
        <time>2020-09-09T13:06:06.000Z</time>
      </trkpt>
      <trkpt lat="43.48169" lon="6.6242">
        <ele>68.9</ele>
        <time>2020-09-09T13:06:15.000Z</time>
      </trkpt>
      <trkpt lat="43.48178" lon="6.62424">
        <ele>69</ele>
        <time>2020-09-09T13:06:25.000Z</time>
      </trkpt>
      <trkpt lat="43.48186" lon="6.6243">
        <ele>69.9</ele>
        <time>2020-09-09T13:06:55.000Z</time>
      </trkpt>
      <trkpt lat="43.48194" lon="6.62437">
        <ele>68.9</ele>
        <time>2020-09-09T13:07:06.000Z</time>
      </trkpt>
      <trkpt lat="43.48204" lon="6.62439">
        <ele>67.7</ele>
        <time>2020-09-09T13:07:17.000Z</time>
      </trkpt>
      <trkpt lat="43.48214" lon="6.62441">
        <ele>66.5</ele>
        <time>2020-09-09T13:07:27.000Z</time>
      </trkpt>
      <trkpt lat="43.48222" lon="6.62444">
        <ele>65.3</ele>
        <time>2020-09-09T13:07:37.000Z</time>
      </trkpt>
      <trkpt lat="43.48231" lon="6.62446">
        <ele>64.2</ele>
        <time>2020-09-09T13:08:04.000Z</time>
      </trkpt>
      <trkpt lat="43.4824" lon="6.6244">
        <ele>62.9</ele>
        <time>2020-09-09T13:08:14.000Z</time>
      </trkpt>
      <trkpt lat="43.48244" lon="6.62428">
        <ele>62.2</ele>
        <time>2020-09-09T13:08:25.000Z</time>
      </trkpt>
      <trkpt lat="43.48245" lon="6.62415">
        <ele>61.9</ele>
        <time>2020-09-09T13:08:34.000Z</time>
      </trkpt>
      <trkpt lat="43.48245" lon="6.62402">
        <ele>61.3</ele>
        <time>2020-09-09T13:08:43.000Z</time>
      </trkpt>
      <trkpt lat="43.48245" lon="6.6239">
        <ele>61</ele>
        <time>2020-09-09T13:08:52.000Z</time>
      </trkpt>
      <trkpt lat="43.48244" lon="6.62377">
        <ele>61.1</ele>
        <time>2020-09-09T13:09:01.000Z</time>
      </trkpt>
      <trkpt lat="43.48243" lon="6.62365">
        <ele>60.8</ele>
        <time>2020-09-09T13:09:11.000Z</time>
      </trkpt>
      <trkpt lat="43.48242" lon="6.62351">
        <ele>60.2</ele>
        <time>2020-09-09T13:09:21.000Z</time>
      </trkpt>
      <trkpt lat="43.4824" lon="6.62338">
        <ele>59.8</ele>
        <time>2020-09-09T13:09:30.000Z</time>
      </trkpt>
      <trkpt lat="43.48241" lon="6.62325">
        <ele>59</ele>
        <time>2020-09-09T13:09:40.000Z</time>
      </trkpt>
      <trkpt lat="43.4824" lon="6.62311">
        <ele>58.4</ele>
        <time>2020-09-09T13:09:49.000Z</time>
      </trkpt>
      <trkpt lat="43.48239" lon="6.62298">
        <ele>58.2</ele>
        <time>2020-09-09T13:09:58.000Z</time>
      </trkpt>
      <trkpt lat="43.48238" lon="6.62286">
        <ele>57.7</ele>
        <time>2020-09-09T13:10:07.000Z</time>
      </trkpt>
      <trkpt lat="43.48237" lon="6.62272">
        <ele>57.1</ele>
        <time>2020-09-09T13:10:17.000Z</time>
      </trkpt>
      <trkpt lat="43.48244" lon="6.62262">
        <ele>56.3</ele>
        <time>2020-09-09T13:10:27.000Z</time>
      </trkpt>
      <trkpt lat="43.48253" lon="6.62259">
        <ele>56.1</ele>
        <time>2020-09-09T13:10:38.000Z</time>
      </trkpt>
      <trkpt lat="43.48261" lon="6.62264">
        <ele>56.1</ele>
        <time>2020-09-09T13:10:46.000Z</time>
      </trkpt>
      <trkpt lat="43.48268" lon="6.62272">
        <ele>56.9</ele>
        <time>2020-09-09T13:10:55.000Z</time>
      </trkpt>
      <trkpt lat="43.48273" lon="6.62284">
        <ele>58.4</ele>
        <time>2020-09-09T13:11:05.000Z</time>
      </trkpt>
      <trkpt lat="43.48278" lon="6.62295">
        <ele>58.1</ele>
        <time>2020-09-09T13:11:14.000Z</time>
      </trkpt>
      <trkpt lat="43.48281" lon="6.62307">
        <ele>57.4</ele>
        <time>2020-09-09T13:11:22.000Z</time>
      </trkpt>
      <trkpt lat="43.48285" lon="6.62318">
        <ele>57.3</ele>
        <time>2020-09-09T13:11:30.000Z</time>
      </trkpt>
      <trkpt lat="43.48288" lon="6.6233">
        <ele>57</ele>
        <time>2020-09-09T13:11:38.000Z</time>
      </trkpt>
      <trkpt lat="43.48291" lon="6.62342">
        <ele>56.5</ele>
        <time>2020-09-09T13:11:46.000Z</time>
      </trkpt>
      <trkpt lat="43.48295" lon="6.62354">
        <ele>56.1</ele>
        <time>2020-09-09T13:11:54.000Z</time>
      </trkpt>
      <trkpt lat="43.48298" lon="6.62366">
        <ele>55.6</ele>
        <time>2020-09-09T13:12:02.000Z</time>
      </trkpt>
      <trkpt lat="43.48302" lon="6.62378">
        <ele>55.5</ele>
        <time>2020-09-09T13:12:10.000Z</time>
      </trkpt>
      <trkpt lat="43.48306" lon="6.62389">
        <ele>54.7</ele>
        <time>2020-09-09T13:12:17.000Z</time>
      </trkpt>
      <trkpt lat="43.48309" lon="6.62402">
        <ele>54.4</ele>
        <time>2020-09-09T13:12:25.000Z</time>
      </trkpt>
      <trkpt lat="43.48312" lon="6.62415">
        <ele>53.8</ele>
        <time>2020-09-09T13:12:34.000Z</time>
      </trkpt>
      <trkpt lat="43.48316" lon="6.62427">
        <ele>53.4</ele>
        <time>2020-09-09T13:12:43.000Z</time>
      </trkpt>
      <trkpt lat="43.4832" lon="6.6244">
        <ele>53.5</ele>
        <time>2020-09-09T13:12:52.000Z</time>
      </trkpt>
      <trkpt lat="43.48322" lon="6.62452">
        <ele>53.9</ele>
        <time>2020-09-09T13:14:52.000Z</time>
      </trkpt>
      <trkpt lat="43.48325" lon="6.62464">
        <ele>53.7</ele>
        <time>2020-09-09T13:15:01.000Z</time>
      </trkpt>
      <trkpt lat="43.48331" lon="6.62474">
        <ele>53.4</ele>
        <time>2020-09-09T13:15:13.000Z</time>
      </trkpt>
      <trkpt lat="43.48338" lon="6.62482">
        <ele>52.3</ele>
        <time>2020-09-09T13:15:25.000Z</time>
      </trkpt>
      <trkpt lat="43.48347" lon="6.62488">
        <ele>51.6</ele>
        <time>2020-09-09T13:15:35.000Z</time>
      </trkpt>
      <trkpt lat="43.48355" lon="6.62494">
        <ele>51.1</ele>
        <time>2020-09-09T13:15:44.000Z</time>
      </trkpt>
      <trkpt lat="43.48357" lon="6.62507">
        <ele>49.7</ele>
        <time>2020-09-09T13:16:02.000Z</time>
      </trkpt>
      <trkpt lat="43.48357" lon="6.6252">
        <ele>47.6</ele>
        <time>2020-09-09T13:16:17.000Z</time>
      </trkpt>
      <trkpt lat="43.48361" lon="6.62533">
        <ele>46.3</ele>
        <time>2020-09-09T13:16:27.000Z</time>
      </trkpt>
      <trkpt lat="43.48366" lon="6.62544">
        <ele>44.3</ele>
        <time>2020-09-09T13:16:41.000Z</time>
      </trkpt>
      <trkpt lat="43.48364" lon="6.62557">
        <ele>42.9</ele>
        <time>2020-09-09T13:16:52.000Z</time>
      </trkpt>
      <trkpt lat="43.48369" lon="6.62568">
        <ele>41.9</ele>
        <time>2020-09-09T13:17:01.000Z</time>
      </trkpt>
      <trkpt lat="43.48371" lon="6.62581">
        <ele>41</ele>
        <time>2020-09-09T13:17:11.000Z</time>
      </trkpt>
      <trkpt lat="43.48374" lon="6.62593">
        <ele>40.6</ele>
        <time>2020-09-09T13:17:21.000Z</time>
      </trkpt>
      <trkpt lat="43.48379" lon="6.62605">
        <ele>40.3</ele>
        <time>2020-09-09T13:17:32.000Z</time>
      </trkpt>
      <trkpt lat="43.48383" lon="6.62617">
        <ele>39.7</ele>
        <time>2020-09-09T13:17:41.000Z</time>
      </trkpt>
      <trkpt lat="43.48389" lon="6.62627">
        <ele>39.1</ele>
        <time>2020-09-09T13:17:50.000Z</time>
      </trkpt>
      <trkpt lat="43.48391" lon="6.6264">
        <ele>38.7</ele>
        <time>2020-09-09T13:18:00.000Z</time>
      </trkpt>
      <trkpt lat="43.48398" lon="6.6265">
        <ele>38.7</ele>
        <time>2020-09-09T13:18:10.000Z</time>
      </trkpt>
      <trkpt lat="43.48406" lon="6.62654">
        <ele>38.7</ele>
        <time>2020-09-09T13:18:19.000Z</time>
      </trkpt>
      <trkpt lat="43.48416" lon="6.62658">
        <ele>37.8</ele>
        <time>2020-09-09T13:18:29.000Z</time>
      </trkpt>
      <trkpt lat="43.48425" lon="6.62658">
        <ele>36.8</ele>
        <time>2020-09-09T13:18:38.000Z</time>
      </trkpt>
      <trkpt lat="43.48435" lon="6.62658">
        <ele>36.5</ele>
        <time>2020-09-09T13:18:47.000Z</time>
      </trkpt>
      <trkpt lat="43.48443" lon="6.6265">
        <ele>36.6</ele>
        <time>2020-09-09T13:18:56.000Z</time>
      </trkpt>
      <trkpt lat="43.48451" lon="6.62643">
        <ele>36.5</ele>
        <time>2020-09-09T13:19:06.000Z</time>
      </trkpt>
      <trkpt lat="43.48449" lon="6.62656">
        <ele>37</ele>
        <time>2020-09-09T13:20:09.000Z</time>
      </trkpt>
      <trkpt lat="43.48454" lon="6.62667">
        <ele>37</ele>
        <time>2020-09-09T13:20:25.000Z</time>
      </trkpt>
      <trkpt lat="43.48445" lon="6.62661">
        <ele>37.8</ele>
        <time>2020-09-09T13:32:30.000Z</time>
      </trkpt>
      <trkpt lat="43.48436" lon="6.6266">
        <ele>37.8</ele>
        <time>2020-09-09T13:32:40.000Z</time>
      </trkpt>
      <trkpt lat="43.48431" lon="6.62671">
        <ele>38.1</ele>
        <time>2020-09-09T13:32:50.000Z</time>
      </trkpt>
      <trkpt lat="43.48437" lon="6.62681">
        <ele>39.1</ele>
        <time>2020-09-09T13:33:01.000Z</time>
      </trkpt>
      <trkpt lat="43.48446" lon="6.62684">
        <ele>39.5</ele>
        <time>2020-09-09T13:33:12.000Z</time>
      </trkpt>
      <trkpt lat="43.48455" lon="6.62689">
        <ele>39.3</ele>
        <time>2020-09-09T13:33:21.000Z</time>
      </trkpt>
      <trkpt lat="43.48465" lon="6.62693">
        <ele>39.3</ele>
        <time>2020-09-09T13:33:31.000Z</time>
      </trkpt>
      <trkpt lat="43.48474" lon="6.62697">
        <ele>39.2</ele>
        <time>2020-09-09T13:33:39.000Z</time>
      </trkpt>
      <trkpt lat="43.48483" lon="6.62699">
        <ele>39.3</ele>
        <time>2020-09-09T13:33:49.000Z</time>
      </trkpt>
      <trkpt lat="43.48492" lon="6.62701">
        <ele>39.8</ele>
        <time>2020-09-09T13:33:58.000Z</time>
      </trkpt>
      <trkpt lat="43.48501" lon="6.62697">
        <ele>39.3</ele>
        <time>2020-09-09T13:34:07.000Z</time>
      </trkpt>
      <trkpt lat="43.48508" lon="6.62689">
        <ele>40.1</ele>
        <time>2020-09-09T13:34:17.000Z</time>
      </trkpt>
      <trkpt lat="43.48517" lon="6.62683">
        <ele>40.4</ele>
        <time>2020-09-09T13:34:27.000Z</time>
      </trkpt>
      <trkpt lat="43.48527" lon="6.6268">
        <ele>40.7</ele>
        <time>2020-09-09T13:34:36.000Z</time>
      </trkpt>
      <trkpt lat="43.48534" lon="6.62672">
        <ele>41.2</ele>
        <time>2020-09-09T13:34:45.000Z</time>
      </trkpt>
      <trkpt lat="43.48537" lon="6.62658">
        <ele>41.1</ele>
        <time>2020-09-09T13:34:56.000Z</time>
      </trkpt>
      <trkpt lat="43.48538" lon="6.62645">
        <ele>40.8</ele>
        <time>2020-09-09T13:35:05.000Z</time>
      </trkpt>
      <trkpt lat="43.48539" lon="6.62633">
        <ele>40.3</ele>
        <time>2020-09-09T13:35:13.000Z</time>
      </trkpt>
      <trkpt lat="43.48541" lon="6.6262">
        <ele>40.4</ele>
        <time>2020-09-09T13:35:22.000Z</time>
      </trkpt>
      <trkpt lat="43.48547" lon="6.62609">
        <ele>40.6</ele>
        <time>2020-09-09T13:35:31.000Z</time>
      </trkpt>
      <trkpt lat="43.48556" lon="6.62608">
        <ele>41</ele>
        <time>2020-09-09T13:35:41.000Z</time>
      </trkpt>
      <trkpt lat="43.48565" lon="6.6261">
        <ele>41.4</ele>
        <time>2020-09-09T13:35:51.000Z</time>
      </trkpt>
      <trkpt lat="43.48575" lon="6.62612">
        <ele>41.8</ele>
        <time>2020-09-09T13:36:01.000Z</time>
      </trkpt>
      <trkpt lat="43.48584" lon="6.62612">
        <ele>41.8</ele>
        <time>2020-09-09T13:36:10.000Z</time>
      </trkpt>
      <trkpt lat="43.48593" lon="6.62612">
        <ele>41.5</ele>
        <time>2020-09-09T13:36:19.000Z</time>
      </trkpt>
      <trkpt lat="43.48603" lon="6.62611">
        <ele>41.6</ele>
        <time>2020-09-09T13:36:29.000Z</time>
      </trkpt>
      <trkpt lat="43.48611" lon="6.62606">
        <ele>41.2</ele>
        <time>2020-09-09T13:36:37.000Z</time>
      </trkpt>
      <trkpt lat="43.4862" lon="6.62599">
        <ele>41.5</ele>
        <time>2020-09-09T13:36:46.000Z</time>
      </trkpt>
      <trkpt lat="43.48629" lon="6.62594">
        <ele>41.9</ele>
        <time>2020-09-09T13:36:56.000Z</time>
      </trkpt>
      <trkpt lat="43.48638" lon="6.6259">
        <ele>41.8</ele>
        <time>2020-09-09T13:37:06.000Z</time>
      </trkpt>
      <trkpt lat="43.48648" lon="6.62587">
        <ele>42.2</ele>
        <time>2020-09-09T13:37:15.000Z</time>
      </trkpt>
      <trkpt lat="43.48657" lon="6.62583">
        <ele>42.3</ele>
        <time>2020-09-09T13:37:24.000Z</time>
      </trkpt>
      <trkpt lat="43.48666" lon="6.62579">
        <ele>41.9</ele>
        <time>2020-09-09T13:37:51.000Z</time>
      </trkpt>
      <trkpt lat="43.48674" lon="6.62575">
        <ele>42</ele>
        <time>2020-09-09T13:38:00.000Z</time>
      </trkpt>
      <trkpt lat="43.48684" lon="6.62572">
        <ele>41.8</ele>
        <time>2020-09-09T13:38:10.000Z</time>
      </trkpt>
      <trkpt lat="43.48693" lon="6.6257">
        <ele>41.9</ele>
        <time>2020-09-09T13:38:19.000Z</time>
      </trkpt>
      <trkpt lat="43.48703" lon="6.6257">
        <ele>42</ele>
        <time>2020-09-09T13:38:28.000Z</time>
      </trkpt>
      <trkpt lat="43.48712" lon="6.62566">
        <ele>41.9</ele>
        <time>2020-09-09T13:38:36.000Z</time>
      </trkpt>
      <trkpt lat="43.48721" lon="6.62561">
        <ele>42.2</ele>
        <time>2020-09-09T13:38:45.000Z</time>
      </trkpt>
      <trkpt lat="43.48729" lon="6.62553">
        <ele>42.3</ele>
        <time>2020-09-09T13:38:54.000Z</time>
      </trkpt>
      <trkpt lat="43.48737" lon="6.62546">
        <ele>42.8</ele>
        <time>2020-09-09T13:39:06.000Z</time>
      </trkpt>
      <trkpt lat="43.48743" lon="6.62538">
        <ele>43.2</ele>
        <time>2020-09-09T13:39:17.000Z</time>
      </trkpt>
      <trkpt lat="43.48752" lon="6.62532">
        <ele>43.1</ele>
        <time>2020-09-09T13:39:27.000Z</time>
      </trkpt>
      <trkpt lat="43.48761" lon="6.6253">
        <ele>42.6</ele>
        <time>2020-09-09T13:39:36.000Z</time>
      </trkpt>
      <trkpt lat="43.4877" lon="6.62532">
        <ele>42.9</ele>
        <time>2020-09-09T13:39:45.000Z</time>
      </trkpt>
      <trkpt lat="43.48779" lon="6.62527">
        <ele>43.6</ele>
        <time>2020-09-09T13:39:55.000Z</time>
      </trkpt>
      <trkpt lat="43.48785" lon="6.62516">
        <ele>43.9</ele>
        <time>2020-09-09T13:40:04.000Z</time>
      </trkpt>
      <trkpt lat="43.48792" lon="6.62506">
        <ele>44.4</ele>
        <time>2020-09-09T13:40:13.000Z</time>
      </trkpt>
      <trkpt lat="43.488" lon="6.62501">
        <ele>44.4</ele>
        <time>2020-09-09T13:40:22.000Z</time>
      </trkpt>
      <trkpt lat="43.48808" lon="6.62494">
        <ele>44.3</ele>
        <time>2020-09-09T13:40:32.000Z</time>
      </trkpt>
      <trkpt lat="43.48817" lon="6.62488">
        <ele>44.4</ele>
        <time>2020-09-09T13:40:42.000Z</time>
      </trkpt>
      <trkpt lat="43.48826" lon="6.62492">
        <ele>43.6</ele>
        <time>2020-09-09T13:40:52.000Z</time>
      </trkpt>
      <trkpt lat="43.48835" lon="6.62492">
        <ele>41.8</ele>
        <time>2020-09-09T13:41:03.000Z</time>
      </trkpt>
      <trkpt lat="43.48826" lon="6.62496">
        <ele>40.1</ele>
        <time>2020-09-09T13:43:41.000Z</time>
      </trkpt>
      <trkpt lat="43.48819" lon="6.62505">
        <ele>39.9</ele>
        <time>2020-09-09T13:43:50.000Z</time>
      </trkpt>
      <trkpt lat="43.48824" lon="6.62517">
        <ele>39.5</ele>
        <time>2020-09-09T13:44:01.000Z</time>
      </trkpt>
      <trkpt lat="43.4883" lon="6.62526">
        <ele>40</ele>
        <time>2020-09-09T13:44:10.000Z</time>
      </trkpt>
      <trkpt lat="43.48838" lon="6.62534">
        <ele>40</ele>
        <time>2020-09-09T13:44:19.000Z</time>
      </trkpt>
      <trkpt lat="43.48846" lon="6.62543">
        <ele>40.1</ele>
        <time>2020-09-09T13:44:28.000Z</time>
      </trkpt>
      <trkpt lat="43.48854" lon="6.6255">
        <ele>39.8</ele>
        <time>2020-09-09T13:44:37.000Z</time>
      </trkpt>
      <trkpt lat="43.48862" lon="6.62557">
        <ele>39.6</ele>
        <time>2020-09-09T13:44:47.000Z</time>
      </trkpt>
      <trkpt lat="43.48869" lon="6.62565">
        <ele>39.8</ele>
        <time>2020-09-09T13:44:56.000Z</time>
      </trkpt>
      <trkpt lat="43.48876" lon="6.62573">
        <ele>39.7</ele>
        <time>2020-09-09T13:45:06.000Z</time>
      </trkpt>
      <trkpt lat="43.48884" lon="6.62581">
        <ele>40.1</ele>
        <time>2020-09-09T13:45:16.000Z</time>
      </trkpt>
      <trkpt lat="43.48893" lon="6.62588">
        <ele>39.9</ele>
        <time>2020-09-09T13:45:26.000Z</time>
      </trkpt>
      <trkpt lat="43.48902" lon="6.62592">
        <ele>39.8</ele>
        <time>2020-09-09T13:45:35.000Z</time>
      </trkpt>
      <trkpt lat="43.48911" lon="6.62596">
        <ele>39.8</ele>
        <time>2020-09-09T13:45:44.000Z</time>
      </trkpt>
      <trkpt lat="43.48921" lon="6.62597">
        <ele>39.9</ele>
        <time>2020-09-09T13:45:59.000Z</time>
      </trkpt>
      <trkpt lat="43.4893" lon="6.62598">
        <ele>39.6</ele>
        <time>2020-09-09T13:46:13.000Z</time>
      </trkpt>
      <trkpt lat="43.48926" lon="6.62586">
        <ele>39.2</ele>
        <time>2020-09-09T13:47:14.000Z</time>
      </trkpt>
      <trkpt lat="43.48918" lon="6.6258">
        <ele>39.1</ele>
        <time>2020-09-09T13:47:23.000Z</time>
      </trkpt>
      <trkpt lat="43.48913" lon="6.62569">
        <ele>39.3</ele>
        <time>2020-09-09T13:47:34.000Z</time>
      </trkpt>
      <trkpt lat="43.48911" lon="6.62557">
        <ele>40.1</ele>
        <time>2020-09-09T13:47:44.000Z</time>
      </trkpt>
      <trkpt lat="43.48914" lon="6.62545">
        <ele>40.1</ele>
        <time>2020-09-09T13:47:55.000Z</time>
      </trkpt>
      <trkpt lat="43.48919" lon="6.62534">
        <ele>40.6</ele>
        <time>2020-09-09T13:48:06.000Z</time>
      </trkpt>
      <trkpt lat="43.48915" lon="6.62522">
        <ele>39.7</ele>
        <time>2020-09-09T13:48:16.000Z</time>
      </trkpt>
      <trkpt lat="43.48909" lon="6.62513">
        <ele>38.7</ele>
        <time>2020-09-09T13:48:28.000Z</time>
      </trkpt>
      <trkpt lat="43.48904" lon="6.62501">
        <ele>37.3</ele>
        <time>2020-09-09T13:48:39.000Z</time>
      </trkpt>
      <trkpt lat="43.48905" lon="6.62487">
        <ele>37.4</ele>
        <time>2020-09-09T13:48:50.000Z</time>
      </trkpt>
      <trkpt lat="43.48911" lon="6.62478">
        <ele>37.7</ele>
        <time>2020-09-09T13:49:12.000Z</time>
      </trkpt>
      <trkpt lat="43.48918" lon="6.62487">
        <ele>38.6</ele>
        <time>2020-09-09T13:49:24.000Z</time>
      </trkpt>
      <trkpt lat="43.48927" lon="6.62485">
        <ele>39.2</ele>
        <time>2020-09-09T13:49:34.000Z</time>
      </trkpt>
      <trkpt lat="43.48936" lon="6.62486">
        <ele>39.5</ele>
        <time>2020-09-09T13:49:45.000Z</time>
      </trkpt>
      <trkpt lat="43.48938" lon="6.62473">
        <ele>39</ele>
        <time>2020-09-09T13:49:59.000Z</time>
      </trkpt>
      <trkpt lat="43.48933" lon="6.62462">
        <ele>38.9</ele>
        <time>2020-09-09T13:50:12.000Z</time>
      </trkpt>
      <trkpt lat="43.48934" lon="6.6245">
        <ele>39.6</ele>
        <time>2020-09-09T13:50:22.000Z</time>
      </trkpt>
      <trkpt lat="43.48933" lon="6.62436">
        <ele>39.2</ele>
        <time>2020-09-09T13:50:32.000Z</time>
      </trkpt>
      <trkpt lat="43.48937" lon="6.62425">
        <ele>39.2</ele>
        <time>2020-09-09T13:50:41.000Z</time>
      </trkpt>
      <trkpt lat="43.48939" lon="6.62412">
        <ele>38.9</ele>
        <time>2020-09-09T13:51:25.000Z</time>
      </trkpt>
      <trkpt lat="43.48943" lon="6.62401">
        <ele>38.9</ele>
        <time>2020-09-09T13:51:40.000Z</time>
      </trkpt>
      <trkpt lat="43.4895" lon="6.62392">
        <ele>39.4</ele>
        <time>2020-09-09T13:52:06.000Z</time>
      </trkpt>
      <trkpt lat="43.48949" lon="6.6238">
        <ele>39.3</ele>
        <time>2020-09-09T13:52:15.000Z</time>
      </trkpt>
      <trkpt lat="43.48949" lon="6.62367">
        <ele>39</ele>
        <time>2020-09-09T13:52:25.000Z</time>
      </trkpt>
      <trkpt lat="43.48949" lon="6.62354">
        <ele>38</ele>
        <time>2020-09-09T13:52:34.000Z</time>
      </trkpt>
      <trkpt lat="43.48953" lon="6.62343">
        <ele>38.2</ele>
        <time>2020-09-09T13:52:45.000Z</time>
      </trkpt>
      <trkpt lat="43.48949" lon="6.62331">
        <ele>38.4</ele>
        <time>2020-09-09T13:52:58.000Z</time>
      </trkpt>
      <trkpt lat="43.48958" lon="6.62328">
        <ele>38.5</ele>
        <time>2020-09-09T13:54:41.000Z</time>
      </trkpt>
      <trkpt lat="43.48967" lon="6.62331">
        <ele>39</ele>
        <time>2020-09-09T13:54:55.000Z</time>
      </trkpt>
      <trkpt lat="43.48974" lon="6.62322">
        <ele>40.1</ele>
        <time>2020-09-09T13:55:05.000Z</time>
      </trkpt>
      <trkpt lat="43.48979" lon="6.62311">
        <ele>41.1</ele>
        <time>2020-09-09T13:55:15.000Z</time>
      </trkpt>
      <trkpt lat="43.4898" lon="6.62297">
        <ele>41.6</ele>
        <time>2020-09-09T13:55:24.000Z</time>
      </trkpt>
      <trkpt lat="43.48979" lon="6.62284">
        <ele>42.2</ele>
        <time>2020-09-09T13:55:33.000Z</time>
      </trkpt>
      <trkpt lat="43.4898" lon="6.62271">
        <ele>43.4</ele>
        <time>2020-09-09T13:55:43.000Z</time>
      </trkpt>
      <trkpt lat="43.48982" lon="6.62258">
        <ele>45.1</ele>
        <time>2020-09-09T13:55:58.000Z</time>
      </trkpt>
      <trkpt lat="43.48985" lon="6.62247">
        <ele>45.2</ele>
        <time>2020-09-09T13:56:07.000Z</time>
      </trkpt>
      <trkpt lat="43.48994" lon="6.62241">
        <ele>45.3</ele>
        <time>2020-09-09T13:56:16.000Z</time>
      </trkpt>
      <trkpt lat="43.49003" lon="6.62239">
        <ele>45.3</ele>
        <time>2020-09-09T13:56:25.000Z</time>
      </trkpt>
      <trkpt lat="43.49013" lon="6.6224">
        <ele>46.5</ele>
        <time>2020-09-09T13:56:35.000Z</time>
      </trkpt>
      <trkpt lat="43.49022" lon="6.62237">
        <ele>47.1</ele>
        <time>2020-09-09T13:57:11.000Z</time>
      </trkpt>
      <trkpt lat="43.4903" lon="6.62229">
        <ele>48.2</ele>
        <time>2020-09-09T13:57:20.000Z</time>
      </trkpt>
      <trkpt lat="43.49034" lon="6.62217">
        <ele>48.6</ele>
        <time>2020-09-09T13:57:30.000Z</time>
      </trkpt>
      <trkpt lat="43.49037" lon="6.62205">
        <ele>49.1</ele>
        <time>2020-09-09T13:57:38.000Z</time>
      </trkpt>
      <trkpt lat="43.4904" lon="6.62193">
        <ele>49.6</ele>
        <time>2020-09-09T13:57:46.000Z</time>
      </trkpt>
      <trkpt lat="43.49043" lon="6.62181">
        <ele>50</ele>
        <time>2020-09-09T13:57:56.000Z</time>
      </trkpt>
      <trkpt lat="43.49047" lon="6.62169">
        <ele>50.6</ele>
        <time>2020-09-09T13:58:05.000Z</time>
      </trkpt>
      <trkpt lat="43.4905" lon="6.62156">
        <ele>51</ele>
        <time>2020-09-09T13:58:15.000Z</time>
      </trkpt>
      <trkpt lat="43.49053" lon="6.62144">
        <ele>51.5</ele>
        <time>2020-09-09T13:58:25.000Z</time>
      </trkpt>
      <trkpt lat="43.49056" lon="6.62132">
        <ele>52.7</ele>
        <time>2020-09-09T13:58:35.000Z</time>
      </trkpt>
      <trkpt lat="43.49059" lon="6.6212">
        <ele>53.6</ele>
        <time>2020-09-09T13:58:45.000Z</time>
      </trkpt>
      <trkpt lat="43.49064" lon="6.62109">
        <ele>53.8</ele>
        <time>2020-09-09T13:58:54.000Z</time>
      </trkpt>
      <trkpt lat="43.49068" lon="6.62097">
        <ele>54.2</ele>
        <time>2020-09-09T13:59:04.000Z</time>
      </trkpt>
      <trkpt lat="43.49072" lon="6.62085">
        <ele>54.2</ele>
        <time>2020-09-09T13:59:14.000Z</time>
      </trkpt>
      <trkpt lat="43.49078" lon="6.62075">
        <ele>54.5</ele>
        <time>2020-09-09T13:59:22.000Z</time>
      </trkpt>
      <trkpt lat="43.49085" lon="6.62065">
        <ele>54.1</ele>
        <time>2020-09-09T13:59:31.000Z</time>
      </trkpt>
      <trkpt lat="43.49091" lon="6.62056">
        <ele>53.7</ele>
        <time>2020-09-09T13:59:40.000Z</time>
      </trkpt>
      <trkpt lat="43.49096" lon="6.62045">
        <ele>53.2</ele>
        <time>2020-09-09T13:59:51.000Z</time>
      </trkpt>
      <trkpt lat="43.49103" lon="6.62036">
        <ele>52.6</ele>
        <time>2020-09-09T14:00:00.000Z</time>
      </trkpt>
      <trkpt lat="43.4911" lon="6.62026">
        <ele>51.9</ele>
        <time>2020-09-09T14:00:09.000Z</time>
      </trkpt>
      <trkpt lat="43.49117" lon="6.62016">
        <ele>51.6</ele>
        <time>2020-09-09T14:00:18.000Z</time>
      </trkpt>
      <trkpt lat="43.49122" lon="6.62006">
        <ele>51.3</ele>
        <time>2020-09-09T14:00:27.000Z</time>
      </trkpt>
      <trkpt lat="43.49127" lon="6.61996">
        <ele>51.2</ele>
        <time>2020-09-09T14:00:35.000Z</time>
      </trkpt>
      <trkpt lat="43.49133" lon="6.61985">
        <ele>51.1</ele>
        <time>2020-09-09T14:00:43.000Z</time>
      </trkpt>
      <trkpt lat="43.49137" lon="6.61973">
        <ele>50.9</ele>
        <time>2020-09-09T14:00:51.000Z</time>
      </trkpt>
      <trkpt lat="43.49141" lon="6.61962">
        <ele>51.2</ele>
        <time>2020-09-09T14:00:59.000Z</time>
      </trkpt>
      <trkpt lat="43.49145" lon="6.6195">
        <ele>51</ele>
        <time>2020-09-09T14:01:08.000Z</time>
      </trkpt>
      <trkpt lat="43.49149" lon="6.61939">
        <ele>50.8</ele>
        <time>2020-09-09T14:01:17.000Z</time>
      </trkpt>
      <trkpt lat="43.49153" lon="6.61927">
        <ele>50.9</ele>
        <time>2020-09-09T14:01:26.000Z</time>
      </trkpt>
      <trkpt lat="43.49158" lon="6.61916">
        <ele>50.8</ele>
        <time>2020-09-09T14:01:37.000Z</time>
      </trkpt>
      <trkpt lat="43.49157" lon="6.61904">
        <ele>49.1</ele>
        <time>2020-09-09T14:06:32.000Z</time>
      </trkpt>
      <trkpt lat="43.49147" lon="6.61907">
        <ele>48.4</ele>
        <time>2020-09-09T14:08:04.000Z</time>
      </trkpt>
      <trkpt lat="43.49137" lon="6.61907">
        <ele>47.8</ele>
        <time>2020-09-09T14:08:15.000Z</time>
      </trkpt>
      <trkpt lat="43.49128" lon="6.61908">
        <ele>47.4</ele>
        <time>2020-09-09T14:08:23.000Z</time>
      </trkpt>
      <trkpt lat="43.49118" lon="6.61906">
        <ele>47.2</ele>
        <time>2020-09-09T14:08:31.000Z</time>
      </trkpt>
      <trkpt lat="43.49109" lon="6.61907">
        <ele>47.1</ele>
        <time>2020-09-09T14:08:39.000Z</time>
      </trkpt>
      <trkpt lat="43.491" lon="6.61908">
        <ele>47</ele>
        <time>2020-09-09T14:08:47.000Z</time>
      </trkpt>
      <trkpt lat="43.4909" lon="6.61908">
        <ele>46.7</ele>
        <time>2020-09-09T14:08:56.000Z</time>
      </trkpt>
      <trkpt lat="43.49081" lon="6.6191">
        <ele>45.9</ele>
        <time>2020-09-09T14:09:05.000Z</time>
      </trkpt>
      <trkpt lat="43.49071" lon="6.61911">
        <ele>45.2</ele>
        <time>2020-09-09T14:09:15.000Z</time>
      </trkpt>
      <trkpt lat="43.49063" lon="6.61916">
        <ele>44.7</ele>
        <time>2020-09-09T14:09:23.000Z</time>
      </trkpt>
      <trkpt lat="43.49054" lon="6.61922">
        <ele>43.6</ele>
        <time>2020-09-09T14:09:34.000Z</time>
      </trkpt>
      <trkpt lat="43.49046" lon="6.61927">
        <ele>42.6</ele>
        <time>2020-09-09T14:09:42.000Z</time>
      </trkpt>
      <trkpt lat="43.49036" lon="6.61928">
        <ele>41.3</ele>
        <time>2020-09-09T14:09:53.000Z</time>
      </trkpt>
      <trkpt lat="43.49025" lon="6.6193">
        <ele>40.9</ele>
        <time>2020-09-09T14:10:01.000Z</time>
      </trkpt>
      <trkpt lat="43.49016" lon="6.61931">
        <ele>40.5</ele>
        <time>2020-09-09T14:10:07.000Z</time>
      </trkpt>
      <trkpt lat="43.49006" lon="6.61933">
        <ele>40.5</ele>
        <time>2020-09-09T14:10:16.000Z</time>
      </trkpt>
      <trkpt lat="43.48997" lon="6.61936">
        <ele>40.2</ele>
        <time>2020-09-09T14:10:26.000Z</time>
      </trkpt>
      <trkpt lat="43.48988" lon="6.61941">
        <ele>39.7</ele>
        <time>2020-09-09T14:10:36.000Z</time>
      </trkpt>
      <trkpt lat="43.48978" lon="6.61942">
        <ele>39.7</ele>
        <time>2020-09-09T14:10:48.000Z</time>
      </trkpt>
      <trkpt lat="43.48969" lon="6.61946">
        <ele>39.9</ele>
        <time>2020-09-09T14:10:56.000Z</time>
      </trkpt>
      <trkpt lat="43.4896" lon="6.6195">
        <ele>40.4</ele>
        <time>2020-09-09T14:11:05.000Z</time>
      </trkpt>
      <trkpt lat="43.4895" lon="6.61951">
        <ele>41.1</ele>
        <time>2020-09-09T14:11:14.000Z</time>
      </trkpt>
      <trkpt lat="43.4894" lon="6.61951">
        <ele>41.7</ele>
        <time>2020-09-09T14:11:23.000Z</time>
      </trkpt>
      <trkpt lat="43.48931" lon="6.61948">
        <ele>41.9</ele>
        <time>2020-09-09T14:11:32.000Z</time>
      </trkpt>
      <trkpt lat="43.48922" lon="6.61946">
        <ele>42.1</ele>
        <time>2020-09-09T14:11:40.000Z</time>
      </trkpt>
      <trkpt lat="43.48913" lon="6.61947">
        <ele>42.6</ele>
        <time>2020-09-09T14:11:49.000Z</time>
      </trkpt>
      <trkpt lat="43.48903" lon="6.61946">
        <ele>42.9</ele>
        <time>2020-09-09T14:11:58.000Z</time>
      </trkpt>
      <trkpt lat="43.48894" lon="6.61946">
        <ele>43.3</ele>
        <time>2020-09-09T14:12:08.000Z</time>
      </trkpt>
      <trkpt lat="43.48885" lon="6.61948">
        <ele>44.4</ele>
        <time>2020-09-09T14:12:18.000Z</time>
      </trkpt>
      <trkpt lat="43.48876" lon="6.61948">
        <ele>45</ele>
        <time>2020-09-09T14:12:27.000Z</time>
      </trkpt>
      <trkpt lat="43.48866" lon="6.61948">
        <ele>45.6</ele>
        <time>2020-09-09T14:12:36.000Z</time>
      </trkpt>
      <trkpt lat="43.48856" lon="6.61949">
        <ele>46.3</ele>
        <time>2020-09-09T14:12:45.000Z</time>
      </trkpt>
      <trkpt lat="43.48847" lon="6.61953">
        <ele>47.4</ele>
        <time>2020-09-09T14:12:55.000Z</time>
      </trkpt>
      <trkpt lat="43.48837" lon="6.61956">
        <ele>48.1</ele>
        <time>2020-09-09T14:13:03.000Z</time>
      </trkpt>
      <trkpt lat="43.48828" lon="6.61959">
        <ele>48.9</ele>
        <time>2020-09-09T14:13:12.000Z</time>
      </trkpt>
      <trkpt lat="43.48819" lon="6.61963">
        <ele>49.8</ele>
        <time>2020-09-09T14:13:22.000Z</time>
      </trkpt>
      <trkpt lat="43.48809" lon="6.61966">
        <ele>50.6</ele>
        <time>2020-09-09T14:13:30.000Z</time>
      </trkpt>
      <trkpt lat="43.488" lon="6.61971">
        <ele>51.4</ele>
        <time>2020-09-09T14:13:38.000Z</time>
      </trkpt>
      <trkpt lat="43.48791" lon="6.61971">
        <ele>52.4</ele>
        <time>2020-09-09T14:13:48.000Z</time>
      </trkpt>
      <trkpt lat="43.48781" lon="6.61973">
        <ele>53</ele>
        <time>2020-09-09T14:13:57.000Z</time>
      </trkpt>
      <trkpt lat="43.48772" lon="6.61976">
        <ele>53.3</ele>
        <time>2020-09-09T14:14:06.000Z</time>
      </trkpt>
      <trkpt lat="43.48763" lon="6.61978">
        <ele>53.9</ele>
        <time>2020-09-09T14:14:14.000Z</time>
      </trkpt>
      <trkpt lat="43.48753" lon="6.61978">
        <ele>53.9</ele>
        <time>2020-09-09T14:14:22.000Z</time>
      </trkpt>
      <trkpt lat="43.48744" lon="6.61979">
        <ele>54.3</ele>
        <time>2020-09-09T14:14:31.000Z</time>
      </trkpt>
      <trkpt lat="43.48734" lon="6.61979">
        <ele>54</ele>
        <time>2020-09-09T14:14:39.000Z</time>
      </trkpt>
      <trkpt lat="43.48725" lon="6.61977">
        <ele>54.3</ele>
        <time>2020-09-09T14:14:48.000Z</time>
      </trkpt>
      <trkpt lat="43.48716" lon="6.61976">
        <ele>55.1</ele>
        <time>2020-09-09T14:14:57.000Z</time>
      </trkpt>
      <trkpt lat="43.48706" lon="6.61975">
        <ele>55.9</ele>
        <time>2020-09-09T14:15:07.000Z</time>
      </trkpt>
      <trkpt lat="43.48697" lon="6.61975">
        <ele>56.8</ele>
        <time>2020-09-09T14:15:18.000Z</time>
      </trkpt>
      <trkpt lat="43.48687" lon="6.61974">
        <ele>57.3</ele>
        <time>2020-09-09T14:15:26.000Z</time>
      </trkpt>
      <trkpt lat="43.48677" lon="6.61973">
        <ele>57.6</ele>
        <time>2020-09-09T14:15:35.000Z</time>
      </trkpt>
      <trkpt lat="43.48668" lon="6.61972">
        <ele>56.2</ele>
        <time>2020-09-09T14:19:00.000Z</time>
      </trkpt>
      <trkpt lat="43.48658" lon="6.61972">
        <ele>55.9</ele>
        <time>2020-09-09T14:19:10.000Z</time>
      </trkpt>
      <trkpt lat="43.48649" lon="6.6197">
        <ele>55.5</ele>
        <time>2020-09-09T14:19:18.000Z</time>
      </trkpt>
      <trkpt lat="43.4864" lon="6.61964">
        <ele>54.7</ele>
        <time>2020-09-09T14:19:25.000Z</time>
      </trkpt>
      <trkpt lat="43.48632" lon="6.61956">
        <ele>54.1</ele>
        <time>2020-09-09T14:19:33.000Z</time>
      </trkpt>
      <trkpt lat="43.48626" lon="6.61947">
        <ele>53.2</ele>
        <time>2020-09-09T14:19:41.000Z</time>
      </trkpt>
      <trkpt lat="43.48618" lon="6.61938">
        <ele>52.3</ele>
        <time>2020-09-09T14:19:49.000Z</time>
      </trkpt>
      <trkpt lat="43.4861" lon="6.61931">
        <ele>50.8</ele>
        <time>2020-09-09T14:19:59.000Z</time>
      </trkpt>
      <trkpt lat="43.486" lon="6.61929">
        <ele>49.5</ele>
        <time>2020-09-09T14:20:09.000Z</time>
      </trkpt>
      <trkpt lat="43.4859" lon="6.61928">
        <ele>48.8</ele>
        <time>2020-09-09T14:20:18.000Z</time>
      </trkpt>
      <trkpt lat="43.4858" lon="6.61929">
        <ele>48.6</ele>
        <time>2020-09-09T14:20:28.000Z</time>
      </trkpt>
      <trkpt lat="43.48571" lon="6.61932">
        <ele>49.7</ele>
        <time>2020-09-09T14:20:38.000Z</time>
      </trkpt>
      <trkpt lat="43.48563" lon="6.61938">
        <ele>50.9</ele>
        <time>2020-09-09T14:20:49.000Z</time>
      </trkpt>
      <trkpt lat="43.48555" lon="6.61945">
        <ele>52.1</ele>
        <time>2020-09-09T14:20:59.000Z</time>
      </trkpt>
      <trkpt lat="43.48548" lon="6.61952">
        <ele>53.2</ele>
        <time>2020-09-09T14:21:17.000Z</time>
      </trkpt>
      <trkpt lat="43.4854" lon="6.61961">
        <ele>54</ele>
        <time>2020-09-09T14:21:27.000Z</time>
      </trkpt>
      <trkpt lat="43.48532" lon="6.61968">
        <ele>54.6</ele>
        <time>2020-09-09T14:21:36.000Z</time>
      </trkpt>
      <trkpt lat="43.48523" lon="6.61972">
        <ele>55.5</ele>
        <time>2020-09-09T14:21:45.000Z</time>
      </trkpt>
      <trkpt lat="43.48513" lon="6.61974">
        <ele>56.6</ele>
        <time>2020-09-09T14:21:54.000Z</time>
      </trkpt>
      <trkpt lat="43.48504" lon="6.61977">
        <ele>57.7</ele>
        <time>2020-09-09T14:22:03.000Z</time>
      </trkpt>
      <trkpt lat="43.48495" lon="6.61981">
        <ele>58.5</ele>
        <time>2020-09-09T14:22:12.000Z</time>
      </trkpt>
      <trkpt lat="43.48485" lon="6.61982">
        <ele>58.9</ele>
        <time>2020-09-09T14:22:21.000Z</time>
      </trkpt>
      <trkpt lat="43.48476" lon="6.61981">
        <ele>59.2</ele>
        <time>2020-09-09T14:22:29.000Z</time>
      </trkpt>
      <trkpt lat="43.48467" lon="6.61979">
        <ele>59.8</ele>
        <time>2020-09-09T14:22:38.000Z</time>
      </trkpt>
      <trkpt lat="43.48458" lon="6.6198">
        <ele>60.6</ele>
        <time>2020-09-09T14:22:48.000Z</time>
      </trkpt>
      <trkpt lat="43.48449" lon="6.61979">
        <ele>61.6</ele>
        <time>2020-09-09T14:22:59.000Z</time>
      </trkpt>
      <trkpt lat="43.48439" lon="6.61979">
        <ele>62.9</ele>
        <time>2020-09-09T14:23:08.000Z</time>
      </trkpt>
      <trkpt lat="43.4843" lon="6.61978">
        <ele>63.6</ele>
        <time>2020-09-09T14:23:17.000Z</time>
      </trkpt>
      <trkpt lat="43.48421" lon="6.61976">
        <ele>64.7</ele>
        <time>2020-09-09T14:23:28.000Z</time>
      </trkpt>
      <trkpt lat="43.48415" lon="6.61966">
        <ele>65.3</ele>
        <time>2020-09-09T14:25:07.000Z</time>
      </trkpt>
      <trkpt lat="43.48413" lon="6.61954">
        <ele>65.4</ele>
        <time>2020-09-09T14:25:17.000Z</time>
      </trkpt>
      <trkpt lat="43.48412" lon="6.61941">
        <ele>66</ele>
        <time>2020-09-09T14:25:27.000Z</time>
      </trkpt>
      <trkpt lat="43.4841" lon="6.61928">
        <ele>66</ele>
        <time>2020-09-09T14:25:39.000Z</time>
      </trkpt>
      <trkpt lat="43.48407" lon="6.61916">
        <ele>66.4</ele>
        <time>2020-09-09T14:25:49.000Z</time>
      </trkpt>
      <trkpt lat="43.48406" lon="6.61903">
        <ele>66.4</ele>
        <time>2020-09-09T14:25:59.000Z</time>
      </trkpt>
      <trkpt lat="43.48404" lon="6.6189">
        <ele>66.8</ele>
        <time>2020-09-09T14:26:08.000Z</time>
      </trkpt>
      <trkpt lat="43.48403" lon="6.61877">
        <ele>67.5</ele>
        <time>2020-09-09T14:26:16.000Z</time>
      </trkpt>
      <trkpt lat="43.48402" lon="6.61865">
        <ele>67.7</ele>
        <time>2020-09-09T14:26:26.000Z</time>
      </trkpt>
      <trkpt lat="43.48399" lon="6.61852">
        <ele>67.9</ele>
        <time>2020-09-09T14:27:12.000Z</time>
      </trkpt>
      <trkpt lat="43.48399" lon="6.61839">
        <ele>68</ele>
        <time>2020-09-09T14:27:28.000Z</time>
      </trkpt>
      <trkpt lat="43.48397" lon="6.61827">
        <ele>68.2</ele>
        <time>2020-09-09T14:27:37.000Z</time>
      </trkpt>
      <trkpt lat="43.48395" lon="6.61813">
        <ele>68.2</ele>
        <time>2020-09-09T14:27:46.000Z</time>
      </trkpt>
      <trkpt lat="43.48394" lon="6.618">
        <ele>68.4</ele>
        <time>2020-09-09T14:27:55.000Z</time>
      </trkpt>
      <trkpt lat="43.48393" lon="6.61787">
        <ele>68.6</ele>
        <time>2020-09-09T14:28:04.000Z</time>
      </trkpt>
      <trkpt lat="43.48391" lon="6.61773">
        <ele>68.8</ele>
        <time>2020-09-09T14:28:12.000Z</time>
      </trkpt>
      <trkpt lat="43.4839" lon="6.6176">
        <ele>69.2</ele>
        <time>2020-09-09T14:28:20.000Z</time>
      </trkpt>
      <trkpt lat="43.48389" lon="6.61748">
        <ele>69.6</ele>
        <time>2020-09-09T14:28:28.000Z</time>
      </trkpt>
      <trkpt lat="43.48387" lon="6.61735">
        <ele>69.7</ele>
        <time>2020-09-09T14:28:37.000Z</time>
      </trkpt>
      <trkpt lat="43.48386" lon="6.61722">
        <ele>70</ele>
        <time>2020-09-09T14:28:46.000Z</time>
      </trkpt>
      <trkpt lat="43.48385" lon="6.61709">
        <ele>70</ele>
        <time>2020-09-09T14:28:54.000Z</time>
      </trkpt>
      <trkpt lat="43.48384" lon="6.61696">
        <ele>70.1</ele>
        <time>2020-09-09T14:29:02.000Z</time>
      </trkpt>
      <trkpt lat="43.48383" lon="6.61684">
        <ele>70.4</ele>
        <time>2020-09-09T14:29:11.000Z</time>
      </trkpt>
      <trkpt lat="43.48381" lon="6.61672">
        <ele>70.7</ele>
        <time>2020-09-09T14:29:20.000Z</time>
      </trkpt>
      <trkpt lat="43.4838" lon="6.61658">
        <ele>71.1</ele>
        <time>2020-09-09T14:29:30.000Z</time>
      </trkpt>
      <trkpt lat="43.48378" lon="6.61645">
        <ele>71.4</ele>
        <time>2020-09-09T14:29:39.000Z</time>
      </trkpt>
      <trkpt lat="43.48377" lon="6.61631">
        <ele>72.5</ele>
        <time>2020-09-09T14:29:49.000Z</time>
      </trkpt>
      <trkpt lat="43.48375" lon="6.61618">
        <ele>72.9</ele>
        <time>2020-09-09T14:29:59.000Z</time>
      </trkpt>
      <trkpt lat="43.48374" lon="6.61606">
        <ele>73.5</ele>
        <time>2020-09-09T14:30:08.000Z</time>
      </trkpt>
      <trkpt lat="43.48372" lon="6.61592">
        <ele>74.1</ele>
        <time>2020-09-09T14:30:18.000Z</time>
      </trkpt>
      <trkpt lat="43.48371" lon="6.61579">
        <ele>75.5</ele>
        <time>2020-09-09T14:30:29.000Z</time>
      </trkpt>
      <trkpt lat="43.4837" lon="6.61567">
        <ele>76.7</ele>
        <time>2020-09-09T14:30:42.000Z</time>
      </trkpt>
      <trkpt lat="43.48369" lon="6.61553">
        <ele>77.4</ele>
        <time>2020-09-09T14:30:53.000Z</time>
      </trkpt>
      <trkpt lat="43.48367" lon="6.6154">
        <ele>77.1</ele>
        <time>2020-09-09T14:31:02.000Z</time>
      </trkpt>
      <trkpt lat="43.48365" lon="6.61527">
        <ele>76.7</ele>
        <time>2020-09-09T14:31:11.000Z</time>
      </trkpt>
      <trkpt lat="43.48363" lon="6.61514">
        <ele>76.9</ele>
        <time>2020-09-09T14:31:20.000Z</time>
      </trkpt>
      <trkpt lat="43.48362" lon="6.61501">
        <ele>76.9</ele>
        <time>2020-09-09T14:31:29.000Z</time>
      </trkpt>
      <trkpt lat="43.4836" lon="6.61488">
        <ele>77</ele>
        <time>2020-09-09T14:31:38.000Z</time>
      </trkpt>
      <trkpt lat="43.48358" lon="6.61474">
        <ele>77.1</ele>
        <time>2020-09-09T14:31:47.000Z</time>
      </trkpt>
      <trkpt lat="43.48356" lon="6.6146">
        <ele>77.1</ele>
        <time>2020-09-09T14:31:57.000Z</time>
      </trkpt>
      <trkpt lat="43.48355" lon="6.61448">
        <ele>77.6</ele>
        <time>2020-09-09T14:32:06.000Z</time>
      </trkpt>
      <trkpt lat="43.48354" lon="6.61435">
        <ele>78.5</ele>
        <time>2020-09-09T14:32:16.000Z</time>
      </trkpt>
      <trkpt lat="43.48352" lon="6.61423">
        <ele>78.7</ele>
        <time>2020-09-09T14:32:25.000Z</time>
      </trkpt>
      <trkpt lat="43.48349" lon="6.6141">
        <ele>79.1</ele>
        <time>2020-09-09T14:32:34.000Z</time>
      </trkpt>
      <trkpt lat="43.48348" lon="6.61397">
        <ele>79.8</ele>
        <time>2020-09-09T14:32:43.000Z</time>
      </trkpt>
      <trkpt lat="43.48347" lon="6.61384">
        <ele>80.6</ele>
        <time>2020-09-09T14:32:52.000Z</time>
      </trkpt>
      <trkpt lat="43.48345" lon="6.61371">
        <ele>80.7</ele>
        <time>2020-09-09T14:33:01.000Z</time>
      </trkpt>
      <trkpt lat="43.48344" lon="6.61357">
        <ele>81.1</ele>
        <time>2020-09-09T14:33:11.000Z</time>
      </trkpt>
      <trkpt lat="43.48342" lon="6.61344">
        <ele>81.4</ele>
        <time>2020-09-09T14:33:21.000Z</time>
      </trkpt>
      <trkpt lat="43.4834" lon="6.61331">
        <ele>81.7</ele>
        <time>2020-09-09T14:33:30.000Z</time>
      </trkpt>
      <trkpt lat="43.48338" lon="6.61318">
        <ele>82.1</ele>
        <time>2020-09-09T14:33:40.000Z</time>
      </trkpt>
      <trkpt lat="43.48338" lon="6.61305">
        <ele>82.5</ele>
        <time>2020-09-09T14:33:49.000Z</time>
      </trkpt>
      <trkpt lat="43.48335" lon="6.61293">
        <ele>83.5</ele>
        <time>2020-09-09T14:34:01.000Z</time>
      </trkpt>
      <trkpt lat="43.48326" lon="6.61295">
        <ele>83.9</ele>
        <time>2020-09-09T14:35:11.000Z</time>
      </trkpt>
      <trkpt lat="43.48317" lon="6.613">
        <ele>84.3</ele>
        <time>2020-09-09T14:35:20.000Z</time>
      </trkpt>
      <trkpt lat="43.48308" lon="6.61306">
        <ele>84.6</ele>
        <time>2020-09-09T14:35:30.000Z</time>
      </trkpt>
      <trkpt lat="43.48299" lon="6.61311">
        <ele>84.9</ele>
        <time>2020-09-09T14:35:39.000Z</time>
      </trkpt>
      <trkpt lat="43.48289" lon="6.61315">
        <ele>85.1</ele>
        <time>2020-09-09T14:35:48.000Z</time>
      </trkpt>
      <trkpt lat="43.4828" lon="6.61321">
        <ele>85.5</ele>
        <time>2020-09-09T14:35:56.000Z</time>
      </trkpt>
      <trkpt lat="43.48272" lon="6.61328">
        <ele>85.7</ele>
        <time>2020-09-09T14:36:05.000Z</time>
      </trkpt>
      <trkpt lat="43.48263" lon="6.61334">
        <ele>86</ele>
        <time>2020-09-09T14:36:14.000Z</time>
      </trkpt>
      <trkpt lat="43.48254" lon="6.61339">
        <ele>86</ele>
        <time>2020-09-09T14:36:23.000Z</time>
      </trkpt>
      <trkpt lat="43.48246" lon="6.61333">
        <ele>85.8</ele>
        <time>2020-09-09T14:36:30.000Z</time>
      </trkpt>
      <trkpt lat="43.48243" lon="6.61321">
        <ele>85.8</ele>
        <time>2020-09-09T14:36:40.000Z</time>
      </trkpt>
      <trkpt lat="43.48237" lon="6.61311">
        <ele>85.8</ele>
        <time>2020-09-09T14:36:49.000Z</time>
      </trkpt>
      <trkpt lat="43.48231" lon="6.61301">
        <ele>85.7</ele>
        <time>2020-09-09T14:36:57.000Z</time>
      </trkpt>
      <trkpt lat="43.48228" lon="6.61287">
        <ele>86</ele>
        <time>2020-09-09T14:37:06.000Z</time>
      </trkpt>
      <trkpt lat="43.48225" lon="6.61274">
        <ele>85.9</ele>
        <time>2020-09-09T14:37:15.000Z</time>
      </trkpt>
      <trkpt lat="43.48224" lon="6.61261">
        <ele>86.1</ele>
        <time>2020-09-09T14:37:24.000Z</time>
      </trkpt>
      <trkpt lat="43.48216" lon="6.61255">
        <ele>85.8</ele>
        <time>2020-09-09T14:37:43.000Z</time>
      </trkpt>
      <trkpt lat="43.48207" lon="6.6126">
        <ele>86.4</ele>
        <time>2020-09-09T14:37:53.000Z</time>
      </trkpt>
      <trkpt lat="43.482" lon="6.6127">
        <ele>86.4</ele>
        <time>2020-09-09T14:38:03.000Z</time>
      </trkpt>
      <trkpt lat="43.48192" lon="6.61278">
        <ele>85.6</ele>
        <time>2020-09-09T14:38:14.000Z</time>
      </trkpt>
      <trkpt lat="43.48185" lon="6.61285">
        <ele>85</ele>
        <time>2020-09-09T14:38:23.000Z</time>
      </trkpt>
      <trkpt lat="43.48178" lon="6.61292">
        <ele>84.8</ele>
        <time>2020-09-09T14:38:35.000Z</time>
      </trkpt>
      <trkpt lat="43.4817" lon="6.61299">
        <ele>84.7</ele>
        <time>2020-09-09T14:38:44.000Z</time>
      </trkpt>
      <trkpt lat="43.48161" lon="6.61305">
        <ele>84.8</ele>
        <time>2020-09-09T14:38:53.000Z</time>
      </trkpt>
      <trkpt lat="43.48153" lon="6.61309">
        <ele>84.6</ele>
        <time>2020-09-09T14:39:01.000Z</time>
      </trkpt>
      <trkpt lat="43.48143" lon="6.61314">
        <ele>84.3</ele>
        <time>2020-09-09T14:39:10.000Z</time>
      </trkpt>
      <trkpt lat="43.48134" lon="6.61317">
        <ele>84.1</ele>
        <time>2020-09-09T14:39:19.000Z</time>
      </trkpt>
      <trkpt lat="43.48125" lon="6.6132">
        <ele>83.6</ele>
        <time>2020-09-09T14:39:30.000Z</time>
      </trkpt>
      <trkpt lat="43.48115" lon="6.61322">
        <ele>83.4</ele>
        <time>2020-09-09T14:39:39.000Z</time>
      </trkpt>
      <trkpt lat="43.48106" lon="6.61324">
        <ele>83</ele>
        <time>2020-09-09T14:39:48.000Z</time>
      </trkpt>
      <trkpt lat="43.48096" lon="6.61327">
        <ele>83.1</ele>
        <time>2020-09-09T14:39:59.000Z</time>
      </trkpt>
      <trkpt lat="43.48089" lon="6.61333">
        <ele>82.5</ele>
        <time>2020-09-09T14:40:10.000Z</time>
      </trkpt>
      <trkpt lat="43.4808" lon="6.61339">
        <ele>81.9</ele>
        <time>2020-09-09T14:40:19.000Z</time>
      </trkpt>
      <trkpt lat="43.48071" lon="6.61341">
        <ele>81.9</ele>
        <time>2020-09-09T14:40:27.000Z</time>
      </trkpt>
      <trkpt lat="43.48061" lon="6.61344">
        <ele>81.5</ele>
        <time>2020-09-09T14:40:36.000Z</time>
      </trkpt>
      <trkpt lat="43.48053" lon="6.6135">
        <ele>81.2</ele>
        <time>2020-09-09T14:40:45.000Z</time>
      </trkpt>
      <trkpt lat="43.48044" lon="6.61353">
        <ele>81.1</ele>
        <time>2020-09-09T14:40:54.000Z</time>
      </trkpt>
      <trkpt lat="43.48035" lon="6.61358">
        <ele>80.9</ele>
        <time>2020-09-09T14:41:03.000Z</time>
      </trkpt>
      <trkpt lat="43.48025" lon="6.61362">
        <ele>81.1</ele>
        <time>2020-09-09T14:41:12.000Z</time>
      </trkpt>
      <trkpt lat="43.48016" lon="6.61366">
        <ele>80.9</ele>
        <time>2020-09-09T14:41:21.000Z</time>
      </trkpt>
      <trkpt lat="43.48007" lon="6.61369">
        <ele>80.8</ele>
        <time>2020-09-09T14:41:30.000Z</time>
      </trkpt>
      <trkpt lat="43.47999" lon="6.61376">
        <ele>81</ele>
        <time>2020-09-09T14:41:39.000Z</time>
      </trkpt>
      <trkpt lat="43.4799" lon="6.61383">
        <ele>80.8</ele>
        <time>2020-09-09T14:41:48.000Z</time>
      </trkpt>
      <trkpt lat="43.47981" lon="6.61389">
        <ele>81.1</ele>
        <time>2020-09-09T14:42:06.000Z</time>
      </trkpt>
      <trkpt lat="43.47973" lon="6.61394">
        <ele>81</ele>
        <time>2020-09-09T14:42:14.000Z</time>
      </trkpt>
      <trkpt lat="43.47965" lon="6.61399">
        <ele>81.3</ele>
        <time>2020-09-09T14:42:22.000Z</time>
      </trkpt>
      <trkpt lat="43.47956" lon="6.61404">
        <ele>81.6</ele>
        <time>2020-09-09T14:42:31.000Z</time>
      </trkpt>
      <trkpt lat="43.47947" lon="6.6141">
        <ele>82.4</ele>
        <time>2020-09-09T14:42:40.000Z</time>
      </trkpt>
      <trkpt lat="43.47939" lon="6.61414">
        <ele>82.8</ele>
        <time>2020-09-09T14:42:49.000Z</time>
      </trkpt>
      <trkpt lat="43.4793" lon="6.6142">
        <ele>83.4</ele>
        <time>2020-09-09T14:42:58.000Z</time>
      </trkpt>
      <trkpt lat="43.47923" lon="6.61427">
        <ele>83.8</ele>
        <time>2020-09-09T14:43:07.000Z</time>
      </trkpt>
      <trkpt lat="43.47914" lon="6.61431">
        <ele>83.7</ele>
        <time>2020-09-09T14:43:16.000Z</time>
      </trkpt>
      <trkpt lat="43.47905" lon="6.61438">
        <ele>83.4</ele>
        <time>2020-09-09T14:43:26.000Z</time>
      </trkpt>
      <trkpt lat="43.47899" lon="6.61447">
        <ele>83.1</ele>
        <time>2020-09-09T14:43:35.000Z</time>
      </trkpt>
      <trkpt lat="43.47891" lon="6.61452">
        <ele>83</ele>
        <time>2020-09-09T14:43:44.000Z</time>
      </trkpt>
      <trkpt lat="43.47882" lon="6.61459">
        <ele>82.8</ele>
        <time>2020-09-09T14:43:53.000Z</time>
      </trkpt>
      <trkpt lat="43.47875" lon="6.61468">
        <ele>82.5</ele>
        <time>2020-09-09T14:44:02.000Z</time>
      </trkpt>
      <trkpt lat="43.47865" lon="6.61468">
        <ele>81.9</ele>
        <time>2020-09-09T14:44:12.000Z</time>
      </trkpt>
      <trkpt lat="43.47856" lon="6.61463">
        <ele>81.4</ele>
        <time>2020-09-09T14:46:52.000Z</time>
      </trkpt>
      <trkpt lat="43.47848" lon="6.61456">
        <ele>81</ele>
        <time>2020-09-09T14:47:00.000Z</time>
      </trkpt>
      <trkpt lat="43.47839" lon="6.61449">
        <ele>80</ele>
        <time>2020-09-09T14:47:08.000Z</time>
      </trkpt>
      <trkpt lat="43.47831" lon="6.61442">
        <ele>79.5</ele>
        <time>2020-09-09T14:47:14.000Z</time>
      </trkpt>
      <trkpt lat="43.47823" lon="6.61435">
        <ele>78.8</ele>
        <time>2020-09-09T14:47:20.000Z</time>
      </trkpt>
      <trkpt lat="43.47814" lon="6.61429">
        <ele>78.2</ele>
        <time>2020-09-09T14:47:27.000Z</time>
      </trkpt>
      <trkpt lat="43.47806" lon="6.61421">
        <ele>77.8</ele>
        <time>2020-09-09T14:47:34.000Z</time>
      </trkpt>
      <trkpt lat="43.47797" lon="6.61414">
        <ele>77.2</ele>
        <time>2020-09-09T14:47:41.000Z</time>
      </trkpt>
      <trkpt lat="43.47789" lon="6.61408">
        <ele>76.8</ele>
        <time>2020-09-09T14:47:46.000Z</time>
      </trkpt>
      <trkpt lat="43.4778" lon="6.61403">
        <ele>76</ele>
        <time>2020-09-09T14:47:52.000Z</time>
      </trkpt>
      <trkpt lat="43.47773" lon="6.61395">
        <ele>75.4</ele>
        <time>2020-09-09T14:47:58.000Z</time>
      </trkpt>
      <trkpt lat="43.47765" lon="6.61388">
        <ele>75.2</ele>
        <time>2020-09-09T14:48:04.000Z</time>
      </trkpt>
      <trkpt lat="43.47756" lon="6.61383">
        <ele>74.6</ele>
        <time>2020-09-09T14:48:09.000Z</time>
      </trkpt>
      <trkpt lat="43.47748" lon="6.61377">
        <ele>73.9</ele>
        <time>2020-09-09T14:48:15.000Z</time>
      </trkpt>
      <trkpt lat="43.47739" lon="6.61372">
        <ele>72.9</ele>
        <time>2020-09-09T14:48:22.000Z</time>
      </trkpt>
      <trkpt lat="43.4773" lon="6.61365">
        <ele>72.5</ele>
        <time>2020-09-09T14:48:28.000Z</time>
      </trkpt>
      <trkpt lat="43.47721" lon="6.6136">
        <ele>71.9</ele>
        <time>2020-09-09T14:48:34.000Z</time>
      </trkpt>
      <trkpt lat="43.47712" lon="6.61353">
        <ele>71.3</ele>
        <time>2020-09-09T14:48:41.000Z</time>
      </trkpt>
      <trkpt lat="43.47704" lon="6.61346">
        <ele>70.7</ele>
        <time>2020-09-09T14:48:47.000Z</time>
      </trkpt>
      <trkpt lat="43.47696" lon="6.61339">
        <ele>69.9</ele>
        <time>2020-09-09T14:48:53.000Z</time>
      </trkpt>
      <trkpt lat="43.47687" lon="6.61333">
        <ele>69.1</ele>
        <time>2020-09-09T14:48:59.000Z</time>
      </trkpt>
      <trkpt lat="43.47678" lon="6.61327">
        <ele>68.6</ele>
        <time>2020-09-09T14:49:05.000Z</time>
      </trkpt>
      <trkpt lat="43.47669" lon="6.61323">
        <ele>68.1</ele>
        <time>2020-09-09T14:49:12.000Z</time>
      </trkpt>
      <trkpt lat="43.47661" lon="6.61315">
        <ele>68</ele>
        <time>2020-09-09T14:49:18.000Z</time>
      </trkpt>
      <trkpt lat="43.47653" lon="6.61307">
        <ele>67.4</ele>
        <time>2020-09-09T14:49:25.000Z</time>
      </trkpt>
      <trkpt lat="43.47644" lon="6.613">
        <ele>66.8</ele>
        <time>2020-09-09T14:49:32.000Z</time>
      </trkpt>
      <trkpt lat="43.47636" lon="6.61294">
        <ele>66.6</ele>
        <time>2020-09-09T14:49:40.000Z</time>
      </trkpt>
      <trkpt lat="43.47628" lon="6.61288">
        <ele>66.4</ele>
        <time>2020-09-09T14:49:50.000Z</time>
      </trkpt>
      <trkpt lat="43.4762" lon="6.61281">
        <ele>66</ele>
        <time>2020-09-09T14:49:59.000Z</time>
      </trkpt>
      <trkpt lat="43.47612" lon="6.61275">
        <ele>66</ele>
        <time>2020-09-09T14:50:11.000Z</time>
      </trkpt>
      <trkpt lat="43.47605" lon="6.61268">
        <ele>65.9</ele>
        <time>2020-09-09T14:50:20.000Z</time>
      </trkpt>
      <trkpt lat="43.47598" lon="6.61258">
        <ele>65.8</ele>
        <time>2020-09-09T14:50:30.000Z</time>
      </trkpt>
      <trkpt lat="43.4759" lon="6.61251">
        <ele>65.4</ele>
        <time>2020-09-09T14:50:40.000Z</time>
      </trkpt>
      <trkpt lat="43.47582" lon="6.61244">
        <ele>65.2</ele>
        <time>2020-09-09T14:50:49.000Z</time>
      </trkpt>
      <trkpt lat="43.47575" lon="6.61237">
        <ele>64.9</ele>
        <time>2020-09-09T14:50:58.000Z</time>
      </trkpt>
      <trkpt lat="43.47566" lon="6.61231">
        <ele>64.8</ele>
        <time>2020-09-09T14:51:07.000Z</time>
      </trkpt>
      <trkpt lat="43.47557" lon="6.61227">
        <ele>64.5</ele>
        <time>2020-09-09T14:51:16.000Z</time>
      </trkpt>
      <trkpt lat="43.47549" lon="6.61219">
        <ele>64.3</ele>
        <time>2020-09-09T14:51:25.000Z</time>
      </trkpt>
      <trkpt lat="43.47542" lon="6.61212">
        <ele>64.2</ele>
        <time>2020-09-09T14:51:34.000Z</time>
      </trkpt>
      <trkpt lat="43.47534" lon="6.61205">
        <ele>64.1</ele>
        <time>2020-09-09T14:51:43.000Z</time>
      </trkpt>
      <trkpt lat="43.47526" lon="6.61198">
        <ele>63.9</ele>
        <time>2020-09-09T14:51:52.000Z</time>
      </trkpt>
      <trkpt lat="43.47519" lon="6.61188">
        <ele>63.8</ele>
        <time>2020-09-09T14:52:02.000Z</time>
      </trkpt>
      <trkpt lat="43.47511" lon="6.61184">
        <ele>63.7</ele>
        <time>2020-09-09T14:52:18.000Z</time>
      </trkpt>
      <trkpt lat="43.47505" lon="6.61196">
        <ele>63.3</ele>
        <time>2020-09-09T14:52:32.000Z</time>
      </trkpt>
      <trkpt lat="43.47501" lon="6.61208">
        <ele>62.9</ele>
        <time>2020-09-09T14:52:41.000Z</time>
      </trkpt>
      <trkpt lat="43.47498" lon="6.61221">
        <ele>62.7</ele>
        <time>2020-09-09T14:52:50.000Z</time>
      </trkpt>
      <trkpt lat="43.47494" lon="6.61234">
        <ele>62.9</ele>
        <time>2020-09-09T14:52:59.000Z</time>
      </trkpt>
      <trkpt lat="43.47491" lon="6.61247">
        <ele>62.9</ele>
        <time>2020-09-09T14:53:07.000Z</time>
      </trkpt>
      <trkpt lat="43.47488" lon="6.6126">
        <ele>62.6</ele>
        <time>2020-09-09T14:53:15.000Z</time>
      </trkpt>
      <trkpt lat="43.47484" lon="6.61272">
        <ele>62.3</ele>
        <time>2020-09-09T14:53:23.000Z</time>
      </trkpt>
      <trkpt lat="43.47481" lon="6.61285">
        <ele>62.3</ele>
        <time>2020-09-09T14:53:31.000Z</time>
      </trkpt>
      <trkpt lat="43.47477" lon="6.61297">
        <ele>62</ele>
        <time>2020-09-09T14:53:39.000Z</time>
      </trkpt>
      <trkpt lat="43.47475" lon="6.61309">
        <ele>62</ele>
        <time>2020-09-09T14:53:47.000Z</time>
      </trkpt>
      <trkpt lat="43.47471" lon="6.61321">
        <ele>62</ele>
        <time>2020-09-09T14:53:55.000Z</time>
      </trkpt>
      <trkpt lat="43.47468" lon="6.61334">
        <ele>62.2</ele>
        <time>2020-09-09T14:54:03.000Z</time>
      </trkpt>
      <trkpt lat="43.47465" lon="6.61346">
        <ele>62.2</ele>
        <time>2020-09-09T14:54:11.000Z</time>
      </trkpt>
      <trkpt lat="43.47466" lon="6.61359">
        <ele>62.3</ele>
        <time>2020-09-09T14:54:21.000Z</time>
      </trkpt>
      <trkpt lat="43.4746" lon="6.61371">
        <ele>62.5</ele>
        <time>2020-09-09T14:54:30.000Z</time>
      </trkpt>
      <trkpt lat="43.47457" lon="6.61382">
        <ele>62.8</ele>
        <time>2020-09-09T14:54:41.000Z</time>
      </trkpt>
      <trkpt lat="43.4745" lon="6.61391">
        <ele>63.1</ele>
        <time>2020-09-09T14:55:29.000Z</time>
      </trkpt>
      <trkpt lat="43.4744" lon="6.6139">
        <ele>62.9</ele>
        <time>2020-09-09T14:56:59.000Z</time>
      </trkpt>
      <trkpt lat="43.47432" lon="6.61387">
        <ele>62.4</ele>
        <time>2020-09-09T14:57:08.000Z</time>
      </trkpt>
      <trkpt lat="43.47422" lon="6.61385">
        <ele>62</ele>
        <time>2020-09-09T14:57:18.000Z</time>
      </trkpt>
      <trkpt lat="43.47412" lon="6.61386">
        <ele>61.7</ele>
        <time>2020-09-09T14:57:26.000Z</time>
      </trkpt>
      <trkpt lat="43.47403" lon="6.61386">
        <ele>60.8</ele>
        <time>2020-09-09T14:57:35.000Z</time>
      </trkpt>
      <trkpt lat="43.47394" lon="6.61388">
        <ele>60.5</ele>
        <time>2020-09-09T14:57:43.000Z</time>
      </trkpt>
      <trkpt lat="43.47385" lon="6.6139">
        <ele>60.3</ele>
        <time>2020-09-09T14:57:51.000Z</time>
      </trkpt>
      <trkpt lat="43.47375" lon="6.61391">
        <ele>59.5</ele>
        <time>2020-09-09T14:58:00.000Z</time>
      </trkpt>
      <trkpt lat="43.47365" lon="6.61392">
        <ele>59.2</ele>
        <time>2020-09-09T14:58:08.000Z</time>
      </trkpt>
      <trkpt lat="43.47355" lon="6.61393">
        <ele>59.1</ele>
        <time>2020-09-09T14:58:16.000Z</time>
      </trkpt>
      <trkpt lat="43.47345" lon="6.61394">
        <ele>59</ele>
        <time>2020-09-09T14:58:23.000Z</time>
      </trkpt>
      <trkpt lat="43.47336" lon="6.61392">
        <ele>58.9</ele>
        <time>2020-09-09T14:58:30.000Z</time>
      </trkpt>
      <trkpt lat="43.47327" lon="6.61388">
        <ele>59</ele>
        <time>2020-09-09T14:58:39.000Z</time>
      </trkpt>
      <trkpt lat="43.47318" lon="6.61384">
        <ele>58.7</ele>
        <time>2020-09-09T14:58:46.000Z</time>
      </trkpt>
      <trkpt lat="43.47309" lon="6.61381">
        <ele>59</ele>
        <time>2020-09-09T14:58:53.000Z</time>
      </trkpt>
      <trkpt lat="43.47299" lon="6.61376">
        <ele>59</ele>
        <time>2020-09-09T14:59:03.000Z</time>
      </trkpt>
      <trkpt lat="43.4729" lon="6.61373">
        <ele>58.7</ele>
        <time>2020-09-09T14:59:13.000Z</time>
      </trkpt>
      <trkpt lat="43.4728" lon="6.61371">
        <ele>58.6</ele>
        <time>2020-09-09T14:59:21.000Z</time>
      </trkpt>
      <trkpt lat="43.47271" lon="6.6137">
        <ele>58.3</ele>
        <time>2020-09-09T14:59:29.000Z</time>
      </trkpt>
      <trkpt lat="43.47262" lon="6.6137">
        <ele>57.9</ele>
        <time>2020-09-09T14:59:36.000Z</time>
      </trkpt>
      <trkpt lat="43.47253" lon="6.6137">
        <ele>57.9</ele>
        <time>2020-09-09T14:59:43.000Z</time>
      </trkpt>
      <trkpt lat="43.47243" lon="6.61371">
        <ele>57.9</ele>
        <time>2020-09-09T14:59:51.000Z</time>
      </trkpt>
      <trkpt lat="43.47233" lon="6.6137">
        <ele>58</ele>
        <time>2020-09-09T14:59:58.000Z</time>
      </trkpt>
      <trkpt lat="43.47226" lon="6.6136">
        <ele>58.3</ele>
        <time>2020-09-09T15:00:05.000Z</time>
      </trkpt>
      <trkpt lat="43.47218" lon="6.61353">
        <ele>58.4</ele>
        <time>2020-09-09T15:00:16.000Z</time>
      </trkpt>
      <trkpt lat="43.47211" lon="6.6136">
        <ele>58.8</ele>
        <time>2020-09-09T15:00:29.000Z</time>
      </trkpt>
      <trkpt lat="43.47203" lon="6.6137">
        <ele>59</ele>
        <time>2020-09-09T15:00:39.000Z</time>
      </trkpt>
      <trkpt lat="43.47193" lon="6.61372">
        <ele>59</ele>
        <time>2020-09-09T15:00:47.000Z</time>
      </trkpt>
      <trkpt lat="43.47187" lon="6.61382">
        <ele>59.1</ele>
        <time>2020-09-09T15:00:56.000Z</time>
      </trkpt>
      <trkpt lat="43.47182" lon="6.61393">
        <ele>58.9</ele>
        <time>2020-09-09T15:01:05.000Z</time>
      </trkpt>
      <trkpt lat="43.47176" lon="6.61402">
        <ele>58.7</ele>
        <time>2020-09-09T15:01:13.000Z</time>
      </trkpt>
      <trkpt lat="43.47169" lon="6.61413">
        <ele>58.4</ele>
        <time>2020-09-09T15:01:22.000Z</time>
      </trkpt>
      <trkpt lat="43.47162" lon="6.61422">
        <ele>58.6</ele>
        <time>2020-09-09T15:01:31.000Z</time>
      </trkpt>
      <trkpt lat="43.47154" lon="6.61429">
        <ele>58.5</ele>
        <time>2020-09-09T15:01:39.000Z</time>
      </trkpt>
      <trkpt lat="43.47146" lon="6.61436">
        <ele>58.6</ele>
        <time>2020-09-09T15:01:48.000Z</time>
      </trkpt>
      <trkpt lat="43.47138" lon="6.61445">
        <ele>58.7</ele>
        <time>2020-09-09T15:01:57.000Z</time>
      </trkpt>
      <trkpt lat="43.47129" lon="6.6145">
        <ele>58.7</ele>
        <time>2020-09-09T15:02:05.000Z</time>
      </trkpt>
      <trkpt lat="43.47122" lon="6.61458">
        <ele>58.7</ele>
        <time>2020-09-09T15:02:13.000Z</time>
      </trkpt>
      <trkpt lat="43.47119" lon="6.6147">
        <ele>59</ele>
        <time>2020-09-09T15:02:22.000Z</time>
      </trkpt>
      <trkpt lat="43.47115" lon="6.61482">
        <ele>58.8</ele>
        <time>2020-09-09T15:02:32.000Z</time>
      </trkpt>
      <trkpt lat="43.47111" lon="6.61494">
        <ele>57.9</ele>
        <time>2020-09-09T15:02:41.000Z</time>
      </trkpt>
      <trkpt lat="43.47109" lon="6.61507">
        <ele>57.5</ele>
        <time>2020-09-09T15:02:51.000Z</time>
      </trkpt>
      <trkpt lat="43.47105" lon="6.61518">
        <ele>56.8</ele>
        <time>2020-09-09T15:03:00.000Z</time>
      </trkpt>
      <trkpt lat="43.47099" lon="6.61529">
        <ele>55.9</ele>
        <time>2020-09-09T15:03:08.000Z</time>
      </trkpt>
      <trkpt lat="43.4709" lon="6.61536">
        <ele>55.3</ele>
        <time>2020-09-09T15:03:17.000Z</time>
      </trkpt>
      <trkpt lat="43.47084" lon="6.61545">
        <ele>55.2</ele>
        <time>2020-09-09T15:03:26.000Z</time>
      </trkpt>
      <trkpt lat="43.47077" lon="6.61555">
        <ele>54.2</ele>
        <time>2020-09-09T15:03:37.000Z</time>
      </trkpt>
      <trkpt lat="43.47072" lon="6.61566">
        <ele>53</ele>
        <time>2020-09-09T15:03:47.000Z</time>
      </trkpt>
      <trkpt lat="43.4707" lon="6.6158">
        <ele>52.4</ele>
        <time>2020-09-09T15:03:56.000Z</time>
      </trkpt>
      <trkpt lat="43.47066" lon="6.61592">
        <ele>52.3</ele>
        <time>2020-09-09T15:04:05.000Z</time>
      </trkpt>
      <trkpt lat="43.47058" lon="6.61599">
        <ele>52.1</ele>
        <time>2020-09-09T15:04:14.000Z</time>
      </trkpt>
      <trkpt lat="43.47049" lon="6.61604">
        <ele>52</ele>
        <time>2020-09-09T15:04:24.000Z</time>
      </trkpt>
      <trkpt lat="43.4704" lon="6.61607">
        <ele>51.7</ele>
        <time>2020-09-09T15:04:33.000Z</time>
      </trkpt>
      <trkpt lat="43.47031" lon="6.61611">
        <ele>51.4</ele>
        <time>2020-09-09T15:04:44.000Z</time>
      </trkpt>
      <trkpt lat="43.47022" lon="6.61614">
        <ele>51.3</ele>
        <time>2020-09-09T15:04:55.000Z</time>
      </trkpt>
      <trkpt lat="43.47014" lon="6.61622">
        <ele>50.8</ele>
        <time>2020-09-09T15:05:04.000Z</time>
      </trkpt>
      <trkpt lat="43.47011" lon="6.61634">
        <ele>50.6</ele>
        <time>2020-09-09T15:05:14.000Z</time>
      </trkpt>
      <trkpt lat="43.47015" lon="6.61646">
        <ele>50.7</ele>
        <time>2020-09-09T15:05:25.000Z</time>
      </trkpt>
      <trkpt lat="43.47019" lon="6.61658">
        <ele>50.9</ele>
        <time>2020-09-09T15:05:34.000Z</time>
      </trkpt>
      <trkpt lat="43.47022" lon="6.61671">
        <ele>51.1</ele>
        <time>2020-09-09T15:05:42.000Z</time>
      </trkpt>
      <trkpt lat="43.47024" lon="6.61683">
        <ele>51.3</ele>
        <time>2020-09-09T15:05:50.000Z</time>
      </trkpt>
      <trkpt lat="43.4702" lon="6.61695">
        <ele>51.6</ele>
        <time>2020-09-09T15:05:59.000Z</time>
      </trkpt>
      <trkpt lat="43.47016" lon="6.61707">
        <ele>51.4</ele>
        <time>2020-09-09T15:06:08.000Z</time>
      </trkpt>
      <trkpt lat="43.47012" lon="6.61719">
        <ele>51.5</ele>
        <time>2020-09-09T15:06:17.000Z</time>
      </trkpt>
      <trkpt lat="43.47008" lon="6.61731">
        <ele>51.1</ele>
        <time>2020-09-09T15:06:25.000Z</time>
      </trkpt>
      <trkpt lat="43.47002" lon="6.61741">
        <ele>51.5</ele>
        <time>2020-09-09T15:06:34.000Z</time>
      </trkpt>
      <trkpt lat="43.46997" lon="6.61751">
        <ele>51.8</ele>
        <time>2020-09-09T15:06:43.000Z</time>
      </trkpt>
      <trkpt lat="43.46991" lon="6.61761">
        <ele>51.9</ele>
        <time>2020-09-09T15:06:51.000Z</time>
      </trkpt>
      <trkpt lat="43.46987" lon="6.61773">
        <ele>51.8</ele>
        <time>2020-09-09T15:07:00.000Z</time>
      </trkpt>
      <trkpt lat="43.46981" lon="6.61782">
        <ele>51.7</ele>
        <time>2020-09-09T15:07:10.000Z</time>
      </trkpt>
      <trkpt lat="43.46974" lon="6.61792">
        <ele>52</ele>
        <time>2020-09-09T15:07:28.000Z</time>
      </trkpt>
      <trkpt lat="43.46968" lon="6.61801">
        <ele>52</ele>
        <time>2020-09-09T15:07:41.000Z</time>
      </trkpt>
      <trkpt lat="43.46963" lon="6.61813">
        <ele>52.2</ele>
        <time>2020-09-09T15:07:50.000Z</time>
      </trkpt>
      <trkpt lat="43.46959" lon="6.61824">
        <ele>52.2</ele>
        <time>2020-09-09T15:07:59.000Z</time>
      </trkpt>
      <trkpt lat="43.46952" lon="6.61832">
        <ele>52.3</ele>
        <time>2020-09-09T15:08:07.000Z</time>
      </trkpt>
      <trkpt lat="43.46944" lon="6.61842">
        <ele>52.3</ele>
        <time>2020-09-09T15:08:16.000Z</time>
      </trkpt>
      <trkpt lat="43.46937" lon="6.61851">
        <ele>52.4</ele>
        <time>2020-09-09T15:08:24.000Z</time>
      </trkpt>
      <trkpt lat="43.4693" lon="6.61861">
        <ele>51.7</ele>
        <time>2020-09-09T15:08:33.000Z</time>
      </trkpt>
      <trkpt lat="43.46924" lon="6.6187">
        <ele>52.1</ele>
        <time>2020-09-09T15:08:42.000Z</time>
      </trkpt>
      <trkpt lat="43.46917" lon="6.61879">
        <ele>51.9</ele>
        <time>2020-09-09T15:08:51.000Z</time>
      </trkpt>
      <trkpt lat="43.4691" lon="6.61889">
        <ele>51.6</ele>
        <time>2020-09-09T15:09:00.000Z</time>
      </trkpt>
      <trkpt lat="43.46905" lon="6.619">
        <ele>51.5</ele>
        <time>2020-09-09T15:09:09.000Z</time>
      </trkpt>
      <trkpt lat="43.46905" lon="6.61913">
        <ele>51.8</ele>
        <time>2020-09-09T15:09:20.000Z</time>
      </trkpt>
      <trkpt lat="43.46902" lon="6.61923">
        <ele>52.1</ele>
        <time>2020-09-09T15:10:02.000Z</time>
      </trkpt>
    </trkseg>
  </trk>
</gpx>